M I D A S
Marine Information and Data Acquisition System
Tripno 1831 of the Zeeleeuw from 2009-12-11 07:23:24 to 2009-12-11 15:23:04
Back to CruiseResearch ActivitiesStationsMapUnderway DataData graphs

EquipmentUnitsComment
TimeDGPSUTC
LatitudeDGPSDM.mWGS84
LongitudeDGPSDM.mWGS84
TemperatureSBE03/SBE38deg celciusITS90
ConductivitySBE21S/mITS90
SalinitySBE21 Practical Salinity Units
ChlorophylAChelsea fluorimeterg/lCalibrated in Aceton
Missing or incorrect values are displayed as -999
Sea surface data collected by the RV Zeeleeuw from 2009-12-11 07:21:24 to 2009-12-11 16:03:35
                                                                                    Next 1000 lines
Time Latitude Longitude Temperature Conductivity Salinity ChlorophylA
2009-12-11 07:21:34 51°13.662 2°55.955 16.0401 0.031609 0.185983 0.113802
2009-12-11 07:21:39 51°13.663 2°55.952 16.0598 0.031609 0.185983 0.113802
2009-12-11 07:21:44 51°13.664 2°55.947 16.1042 0.032226 0.189669 0.113802
2009-12-11 07:21:49 51°13.665 2°55.941 16.0882 0.032123 0.189068 0.148626
2009-12-11 07:21:55 51°13.667 2°55.933 16.0929 0.032123 0.189075 0.148626
2009-12-11 07:22:01 51°13.668 2°55.925 16.0884 0.031814 0.187228 0.148626
2009-12-11 07:22:06 51°13.67 2°55.917 16.0464 0.031917 0.187836 0.113802
2009-12-11 07:22:12 51°13.673 2°55.907 16.001 0.031917 0.187836 0.113802
2009-12-11 07:22:17 51°13.675 2°55.899 16.0917 0.031814 0.18721 0.113802
2009-12-11 07:22:22 51°13.678 2°55.89 16.0966 0.031917 0.187826 0.113802
2009-12-11 07:22:27 51°13.68 2°55.881 16.0859 0.031917 0.187836 0.113802
2009-12-11 07:22:32 51°13.683 2°55.871 16.0586 0.031712 0.186602 0.113802
2009-12-11 07:22:37 51°13.686 2°55.862 16.0628 0.031917 0.187836 0.113802
2009-12-11 07:22:42 51°13.689 2°55.852 16.0927 0.031917 0.187836 0.113802
2009-12-11 07:22:47 51°13.691 2°55.843 16.113 0.03202 0.188452 0.113802
2009-12-11 07:22:52 51°13.694 2°55.834 16.1289 0.032329 0.190314 0.113802
2009-12-11 07:22:57 51°13.697 2°55.824 16.0864 0.032123 0.189082 0.113802
2009-12-11 07:23:02 51°13.7 2°55.816 16.0792 0.03202 0.188459 0.113802
2009-12-11 07:23:07 51°13.703 2°55.807 16.1007 0.032226 0.189691 0.113802
2009-12-11 07:23:12 51°13.706 2°55.799 16.0843 0.032226 0.189691 0.113802
2009-12-11 07:23:17 51°13.71 2°55.79 16.0799 0.032226 0.189687 0.148626
2009-12-11 07:23:22 51°13.713 2°55.782 16.1064 0.031814 0.187221 0.113802
2009-12-11 07:23:27 51°13.717 2°55.774 16.1122 0.032226 0.189687 0.113802
2009-12-11 07:23:32 51°13.721 2°55.766 16.097 0.032226 0.189687 0.113802
2009-12-11 07:23:37 51°13.725 2°55.758 16.0612 0.032432 0.190927 0.113802
2009-12-11 07:23:42 51°13.729 2°55.75 16.0808 0.032432 0.190927 0.113802
2009-12-11 07:23:47 51°13.733 2°55.743 16.062 0.031814 0.187221 0.148626
2009-12-11 07:23:52 51°13.737 2°55.735 16.0754 0.03202 0.188452 0.113802
2009-12-11 07:23:57 51°13.741 2°55.728 16.0543 0.031712 0.186598 0.113802
2009-12-11 07:24:03 51°13.746 2°55.718 16.1099 0.031814 0.18721 0.148626
2009-12-11 07:24:08 51°13.751 2°55.711 16.065 0.031712 0.186591 0.113802
2009-12-11 07:24:12 51°13.755 2°55.706 16.0736 0.031712 0.186591 0.113802
2009-12-11 07:24:17 51°13.759 2°55.699 16.0885 0.031814 0.187206 0.113802
2009-12-11 07:24:22 51°13.764 2°55.692 16.1187 0.031814 0.187206 0.113802
2009-12-11 07:24:27 51°13.769 2°55.686 16.1227 0.031917 0.187826 0.148626
2009-12-11 07:24:32 51°13.775 2°55.68 16.1197 0.031712 0.186598 0.113802
2009-12-11 07:24:37 51°13.78 2°55.674 16.0996 0.031917 0.187829 0.113802
2009-12-11 07:24:42 51°13.785 2°55.668 16.0889 0.031917 0.187829 0.113802
2009-12-11 07:24:47 51°13.791 2°55.663 16.0876 0.031814 0.18721 0.113802
2009-12-11 07:24:52 51°13.798 2°55.659 16.0996 0.032329 0.190289 0.148626
2009-12-11 07:24:57 51°13.804 2°55.655 16.0771 0.031917 0.187829 0.113802
2009-12-11 07:25:02 51°13.81 2°55.652 16.0728 0.032226 0.189676 0.113802
2009-12-11 07:25:08 51°13.817 2°55.648 16.0706 0.03202 0.188441 0.113802
2009-12-11 07:25:13 51°13.823 2°55.645 16.0783 0.03202 0.188441 0.113802
2009-12-11 07:25:18 51°13.83 2°55.642 16.0333 0.03202 0.188441 0.113802
2009-12-11 07:25:22 51°13.835 2°55.64 16.0314 0.031712 0.186584 0.113802
2009-12-11 07:25:28 51°13.842 2°55.637 16.0711 0.031814 0.187192 0.148626
2009-12-11 07:25:33 51°13.849 2°55.634 16.1005 0.031814 0.187199 0.113802
2009-12-11 07:25:38 51°13.855 2°55.632 16.054 0.031712 0.186584 0.113802
2009-12-11 07:25:43 51°13.862 2°55.63 16.0615 0.031712 0.186584 0.113802
2009-12-11 07:25:48 51°13.868 2°55.628 16.0594 0.031712 0.18658 0.113802
2009-12-11 07:25:53 51°13.874 2°55.627 16.094 0.031917 0.187815 0.148626
2009-12-11 07:25:58 51°13.88 2°55.626 16.096 0.03202 0.18843 0.148626
2009-12-11 07:26:02 51°13.884 2°55.625 16.1481 0.032638 0.192134 0.148626
2009-12-11 07:26:08 51°13.891 2°55.625 16.111 0.032123 0.189057 0.113802
2009-12-11 07:26:13 51°13.896 2°55.625 16.0814 0.032123 0.189057 0.113802
2009-12-11 07:26:18 51°13.9 2°55.626 16.089 0.031917 0.187818 0.113802
2009-12-11 07:26:22 51°13.904 2°55.627 16.1013 0.032432 0.190905 0.113802
2009-12-11 07:26:28 51°13.909 2°55.628 16.0974 0.032432 0.190912 0.113802
2009-12-11 07:26:32 51°13.912 2°55.629 16.0086 0.031814 0.187206 0.113802
2009-12-11 07:26:37 51°13.915 2°55.63 16.0439 0.031506 0.185339 0.113802
2009-12-11 07:26:42 51°13.918 2°55.632 16.0776 0.031506 0.185339 0.113802
2009-12-11 07:26:47 51°13.921 2°55.633 16.0946 0.031712 0.186566 0.113802
2009-12-11 07:26:52 51°13.924 2°55.635 16.0784 0.03202 0.188412 0.113802
2009-12-11 07:26:57 51°13.927 2°55.637 16.0763 0.0313 0.184098 0.113802
2009-12-11 07:27:01 51°13.929 2°55.638 16.0929 0.032123 0.189032 0.113802
2009-12-11 07:27:06 51°13.93 2°55.639 16.091 0.032432 0.190898 0.113802
2009-12-11 07:27:11 51°13.932 2°55.64 16.112 0.032432 0.190898 0.113802
2009-12-11 07:27:16 51°13.932 2°55.64 16.0617 0.032123 0.189061 0.113802
2009-12-11 07:27:21 51°13.932 2°55.639 16.0544 0.031094 0.18289 0.113802
2009-12-11 07:27:26 51°13.932 2°55.638 16.036 0.031403 0.184692 0.113802
2009-12-11 07:27:30 51°13.932 2°55.636 15.9828 0.031094 0.182844 0.148626
2009-12-11 07:27:35 51°13.931 2°55.634 16.0298 0.029859 0.175426 0.113802
2009-12-11 07:27:40 51°13.931 2°55.63 15.7926 0.029859 0.175426 0.113802
2009-12-11 07:27:45 51°13.93 2°55.624 15.8419 0.028933 0.169832 0.113802
2009-12-11 07:27:50 51°13.93 2°55.618 15.7659 0.028521 0.16736 0.113802
2009-12-11 07:27:54 51°13.93 2°55.612 15.9163 0.02811 0.164903 0.113802
2009-12-11 07:27:59 51°13.931 2°55.604 15.9092 0.029653 0.174114 0.113802
2009-12-11 07:28:04 51°13.932 2°55.595 15.9289 0.029756 0.174773 0.113802
2009-12-11 07:28:09 51°13.935 2°55.586 15.9502 0.029756 0.174773 0.113802
2009-12-11 07:28:14 51°13.939 2°55.578 15.9453 0.029345 0.172323 0.148626
2009-12-11 07:28:18 51°13.942 2°55.571 15.9522 0.030065 0.176616 0.113802
2009-12-11 07:28:24 51°13.949 2°55.561 15.9539 0.029859 0.17541 0.113802
2009-12-11 07:28:29 51°13.955 2°55.552 15.9917 0.030477 0.179114 0.113802
2009-12-11 07:28:33 51°13.96 2°55.546 15.988 0.031197 0.183448 0.113802
2009-12-11 07:28:38 51°13.968 2°55.538 16.0302 0.031197 0.183448 0.113802
2009-12-11 07:28:43 51°13.976 2°55.531 15.9682 0.030785 0.181001 0.113802
2009-12-11 07:28:49 51°13.987 2°55.521 15.982 0.030271 0.177924 0.113802
2009-12-11 07:28:53 51°13.994 2°55.514 16.0121 0.029653 0.174247 0.148626
2009-12-11 07:28:58 51°14.004 2°55.506 15.974 0.029756 0.174853 0.113802
2009-12-11 07:29:03 51°14.013 2°55.497 15.8891 0.029653 0.174224 0.113802
2009-12-11 07:29:09 51°14.025 2°55.486 15.9354 0.029653 0.174224 0.113802
2009-12-11 07:29:13 51°14.034 2°55.48 15.9467 0.029139 0.171143 0.113802
2009-12-11 07:29:18 51°14.044 2°55.471 15.989 0.030065 0.176666 0.113802
2009-12-11 07:29:23 51°14.055 2°55.463 15.9557 0.029345 0.172388 0.113802
2009-12-11 07:29:28 51°14.066 2°55.455 15.9287 0.029242 0.171766 0.113802
2009-12-11 07:29:33 51°14.077 2°55.446 15.9788 0.029653 0.174217 0.148626
2009-12-11 07:29:38 51°14.088 2°55.438 15.9468 0.029653 0.174217 0.148626
2009-12-11 07:29:43 51°14.1 2°55.429 15.9906 0.029345 0.172365 0.113802
2009-12-11 07:29:48 51°14.111 2°55.42 15.9634 0.02883 0.169271 0.148626
2009-12-11 07:29:53 51°14.122 2°55.41 15.9367 0.028419 0.166812 0.148626
2009-12-11 07:29:58 51°14.133 2°55.4 15.9061 0.029036 0.170476 0.113802
2009-12-11 07:30:03 51°14.144 2°55.39 15.9146 0.029139 0.171078 0.113802
2009-12-11 07:30:08 51°14.155 2°55.38 15.9056 0.029139 0.171078 0.113802
2009-12-11 07:30:13 51°14.167 2°55.369 15.8278 0.028624 0.168003 0.148626
2009-12-11 07:30:19 51°14.18 2°55.354 15.8742 0.028213 0.165548 0.113802
2009-12-11 07:30:23 51°14.189 2°55.344 15.933 0.028316 0.166185 0.148626
2009-12-11 07:30:28 51°14.201 2°55.332 15.9313 0.028316 0.166185 0.113802
2009-12-11 07:30:33 51°14.212 2°55.317 15.8353 0.028727 0.16858 0.113802
2009-12-11 07:30:38 51°14.223 2°55.302 15.8867 0.028727 0.16858 0.113802
2009-12-11 07:30:43 51°14.233 2°55.286 15.8668 0.028316 0.166103 0.113802
2009-12-11 07:30:49 51°14.244 2°55.266 15.8133 0.028419 0.166755 0.113802
2009-12-11 07:30:53 51°14.251 2°55.252 15.7717 0.028521 0.16736 0.113802
2009-12-11 07:30:58 51°14.261 2°55.235 15.731 0.028521 0.167414 0.113802
2009-12-11 07:31:03 51°14.27 2°55.216 15.7538 0.028316 0.166292 0.113802
2009-12-11 07:31:09 51°14.281 2°55.195 15.6553 0.028316 0.166292 0.113802
2009-12-11 07:31:13 51°14.288 2°55.181 15.6938 0.027801 0.163207 0.113802
2009-12-11 07:31:18 51°14.297 2°55.162 15.6562 0.027904 0.163839 0.113802
2009-12-11 07:31:23 51°14.305 2°55.143 15.6091 0.028213 0.165743 0.113802
2009-12-11 07:31:29 51°14.315 2°55.119 15.6638 0.028213 0.165975 0.148626
2009-12-11 07:31:33 51°14.322 2°55.103 15.6595 0.027801 0.16382 0.113802
2009-12-11 07:31:38 51°14.33 2°55.084 15.7135 0.027801 0.16382 0.113802
2009-12-11 07:31:43 51°14.338 2°55.064 15.713 0.028007 0.165101 0.148626
2009-12-11 07:31:49 51°14.348 2°55.04 15.6846 0.028521 0.168147 0.148626
2009-12-11 07:31:53 51°14.355 2°55.024 15.7273 0.028213 0.166348 0.148626
2009-12-11 07:31:58 51°14.363 2°55.004 15.7033 0.028624 0.169223 0.148626
2009-12-11 07:32:03 51°14.373 2°54.987 15.6903 0.029036 0.171713 0.148626
2009-12-11 07:32:08 51°14.382 2°54.968 15.7469 0.029036 0.171713 0.148626
2009-12-11 07:32:13 51°14.391 2°54.95 15.6817 0.029962 0.17725 0.113802
2009-12-11 07:32:18 51°14.398 2°54.931 15.7421 0.028727 0.169807 0.113802
2009-12-11 07:32:23 51°14.404 2°54.911 15.7753 0.029242 0.172884 0.113802
2009-12-11 07:32:28 51°14.408 2°54.889 15.7514 0.029551 0.174853 0.148626
2009-12-11 07:32:33 51°14.411 2°54.87 15.7631 0.028521 0.168552 0.113802
2009-12-11 07:32:39 51°14.412 2°54.845 15.664 0.028521 0.168552 0.113802
2009-12-11 07:32:43 51°14.413 2°54.827 15.6966 0.028727 0.169843 0.148626
2009-12-11 07:32:48 51°14.411 2°54.806 15.6902 0.029448 0.174185 0.253098
2009-12-11 07:32:53 51°14.409 2°54.786 15.7459 0.028624 0.169376 0.253098
2009-12-11 07:32:58 51°14.407 2°54.765 15.7088 0.029242 0.17313 0.253098
2009-12-11 07:33:03 51°14.403 2°54.744 15.6388 0.031197 0.184855 0.253098
2009-12-11 07:33:09 51°14.397 2°54.722 15.629 0.031197 0.184855 0.253098
2009-12-11 07:33:13 51°14.393 2°54.706 15.6655 0.028624 0.169441 0.253098
2009-12-11 07:33:18 51°14.387 2°54.687 15.6428 0.029962 0.177445 0.253098
2009-12-11 07:33:23 51°14.382 2°54.667 15.6912 0.028933 0.171313 0.253098
2009-12-11 07:33:29 51°14.375 2°54.643 15.668 0.028933 0.171399 0.253098
2009-12-11 07:33:33 51°14.37 2°54.628 15.6803 0.028521 0.168953 0.253098
2009-12-11 07:33:38 51°14.366 2°54.608 15.6428 0.028521 0.168953 0.253098
2009-12-11 07:33:43 51°14.36 2°54.588 15.6418 0.031094 0.184456 0.253098
2009-12-11 07:33:48 51°14.355 2°54.568 15.6721 0.029859 0.177027 0.218274
2009-12-11 07:33:53 51°14.35 2°54.548 15.6726 0.031609 0.187563 0.253098
2009-12-11 07:33:58 51°14.346 2°54.527 15.6622 0.031094 0.184513 0.253098
2009-12-11 07:34:03 51°14.342 2°54.507 15.7074 0.030271 0.179478 0.253098
2009-12-11 07:34:08 51°14.338 2°54.486 15.633 0.030271 0.179478 0.253098
2009-12-11 07:34:13 51°14.335 2°54.465 15.6619 0.033152 0.196956 0.218274
2009-12-11 07:34:18 51°14.331 2°54.445 15.6752 0.031094 0.184442 0.218274
2009-12-11 07:34:23 51°14.327 2°54.424 15.6742 0.032741 0.194378 0.218274
2009-12-11 07:34:28 51°14.325 2°54.403 15.6543 0.031403 0.186235 0.218274
2009-12-11 07:34:33 51°14.321 2°54.382 15.6672 0.032638 0.193756 0.253098
2009-12-11 07:34:38 51°14.318 2°54.361 15.6887 0.032638 0.193756 0.253098
2009-12-11 07:34:44 51°14.314 2°54.336 15.6727 0.030888 0.183148 0.253098
2009-12-11 07:34:48 51°14.311 2°54.319 15.6946 0.030374 0.18 0.253098
2009-12-11 07:34:53 51°14.308 2°54.298 15.6783 0.031197 0.18498 0.218274
2009-12-11 07:34:58 51°14.305 2°54.276 15.6979 0.030785 0.182521 0.253098
2009-12-11 07:35:04 51°14.301 2°54.251 15.689 0.039533 0.235595 0.253098
2009-12-11 07:35:09 51°14.299 2°54.229 15.6993 0.039533 0.235595 0.253098
2009-12-11 07:35:13 51°14.297 2°54.213 15.7112 0.033152 0.196937 0.253098
2009-12-11 07:35:18 51°14.293 2°54.192 15.7297 0.034696 0.206159 0.218274
2009-12-11 07:35:23 51°14.291 2°54.17 15.718 0.032638 0.19367 0.218274
2009-12-11 07:35:29 51°14.287 2°54.145 15.74 0.033152 0.196829 0.253098
2009-12-11 07:35:33 51°14.285 2°54.129 15.7217 0.030271 0.179405 0.218274
2009-12-11 07:35:38 51°14.282 2°54.108 15.7364 0.030271 0.179405 0.218274
2009-12-11 07:35:44 51°14.277 2°54.083 15.7435 0.030374 0.179983 0.218274
2009-12-11 07:35:48 51°14.276 2°54.066 15.7353 0.038401 0.228693 0.253098
2009-12-11 07:35:53 51°14.273 2°54.045 15.7384 0.031403 0.1863 0.253098
2009-12-11 07:35:58 51°14.269 2°54.024 15.7402 0.033976 0.201831 0.218274
2009-12-11 07:36:03 51°14.267 2°54.003 15.7388 0.03202 0.190037 0.218274
2009-12-11 07:36:09 51°14.262 2°53.979 15.7462 0.03202 0.190037 0.218274
2009-12-11 07:36:13 51°14.26 2°53.962 15.7492 0.030683 0.181936 0.218274
2009-12-11 07:36:18 51°14.256 2°53.941 15.7502 0.030271 0.179436 0.253098
2009-12-11 07:36:23 51°14.253 2°53.92 15.7563 0.031403 0.186195 0.218274
2009-12-11 07:36:28 51°14.25 2°53.899 15.7608 0.032535 0.193142 0.218274
2009-12-11 07:36:33 51°14.247 2°53.878 15.7664 0.032741 0.194386 0.218274
2009-12-11 07:36:38 51°14.244 2°53.856 15.7594 0.032741 0.194386 0.218274
2009-12-11 07:36:43 51°14.241 2°53.835 15.7658 0.030065 0.178228 0.218274
2009-12-11 07:36:48 51°14.238 2°53.814 15.7645 0.030374 0.180045 0.253098
2009-12-11 07:36:53 51°14.235 2°53.793 15.7697 0.032226 0.19121 0.218274
2009-12-11 07:36:58 51°14.233 2°53.771 15.772 0.030888 0.183173 0.218274
2009-12-11 07:37:03 51°14.229 2°53.75 15.7715 0.035416 0.210564 0.253098
2009-12-11 07:37:08 51°14.227 2°53.728 15.7782 0.035416 0.210564 0.253098
2009-12-11 07:37:13 51°14.224 2°53.707 15.7799 0.0313 0.1856 0.218274
2009-12-11 07:37:18 51°14.222 2°53.685 15.7773 0.031197 0.184951 0.218274
2009-12-11 07:37:24 51°14.217 2°53.66 15.7907 0.033255 0.197398 0.218274
2009-12-11 07:37:29 51°14.215 2°53.638 15.7896 0.031506 0.186881 0.218274
2009-12-11 07:37:33 51°14.211 2°53.622 15.7948 0.031197 0.185033 0.253098
2009-12-11 07:37:38 51°14.208 2°53.601 15.7906 0.031197 0.185033 0.253098
2009-12-11 07:37:43 51°14.202 2°53.582 15.8097 0.031506 0.186935 0.218274
2009-12-11 07:37:49 51°14.197 2°53.556 15.8031 0.031917 0.189394 0.218274
2009-12-11 07:37:53 51°14.191 2°53.542 15.8048 0.035416 0.210622 0.18345
2009-12-11 07:37:58 51°14.186 2°53.522 15.8077 0.030888 0.18319 0.148626
2009-12-11 07:38:04 51°14.179 2°53.499 15.8161 0.03449 0.204928 0.18345
2009-12-11 07:38:09 51°14.172 2°53.48 15.8221 0.03449 0.204928 0.18345
2009-12-11 07:38:13 51°14.168 2°53.464 15.8299 0.032432 0.192528 0.18345
2009-12-11 07:38:18 51°14.159 2°53.447 15.828 0.038504 0.229343 0.18345
2009-12-11 07:38:23 51°14.155 2°53.427 15.8442 0.032226 0.191277 0.18345
2009-12-11 07:38:29 51°14.145 2°53.405 15.8317 0.036445 0.216873 0.18345
2009-12-11 07:38:33 51°14.141 2°53.39 15.8377 0.036548 0.217477 0.148626
2009-12-11 07:38:38 51°14.132 2°53.373 15.8353 0.036548 0.217477 0.148626
2009-12-11 07:38:44 51°14.125 2°53.35 15.8354 0.037886 0.225697 0.18345
2009-12-11 07:38:48 51°14.119 2°53.335 15.8411 0.032535 0.193217 0.18345
2009-12-11 07:38:53 51°14.111 2°53.317 15.8402 0.035519 0.211255 0.18345
2009-12-11 07:38:58 51°14.105 2°53.298 15.8402 0.0313 0.185676 0.18345
2009-12-11 07:39:03 51°14.098 2°53.281 15.8525 0.039018 0.232493 0.18345
2009-12-11 07:39:08 51°14.09 2°53.262 15.8474 0.039018 0.232493 0.18345
2009-12-11 07:39:13 51°14.084 2°53.244 15.8692 0.031917 0.189423 0.18345
2009-12-11 07:39:18 51°14.076 2°53.227 15.851 0.039018 0.232502 0.18345
2009-12-11 07:39:23 51°14.07 2°53.209 15.8993 0.032535 0.193116 0.18345
2009-12-11 07:39:28 51°14.06 2°53.193 15.8626 0.040459 0.241312 0.18345
2009-12-11 07:39:33 51°14.055 2°53.173 15.9012 0.032947 0.195608 0.148626
2009-12-11 07:39:38 51°14.046 2°53.158 15.8835 0.032947 0.195608 0.148626
2009-12-11 07:39:44 51°14.039 2°53.135 15.8969 0.038915 0.231911 0.18345
2009-12-11 07:39:48 51°14.032 2°53.122 15.8876 0.033667 0.199942 0.18345
2009-12-11 07:39:53 51°14.024 2°53.103 15.8791 0.039841 0.237545 0.218274
2009-12-11 07:39:58 51°14.018 2°53.085 15.8899 0.030785 0.182591 0.218274
2009-12-11 07:40:03 51°14.011 2°53.068 15.9023 0.034902 0.207459 0.18345
2009-12-11 07:40:09 51°14.002 2°53.046 15.8819 0.034902 0.207459 0.18345
2009-12-11 07:40:13 51°13.996 2°53.032 15.8848 0.031403 0.186289 0.218274
2009-12-11 07:40:18 51°13.989 2°53.014 15.8981 0.038401 0.228738 0.218274
2009-12-11 07:40:23 51°13.982 2°52.996 15.8928 0.033564 0.19935 0.18345
2009-12-11 07:40:28 51°13.975 2°52.977 15.9061 0.030168 0.178841 0.218274
2009-12-11 07:40:33 51°13.967 2°52.96 15.9043 0.035313 0.209944 0.18345
2009-12-11 07:40:38 51°13.961 2°52.941 15.9144 0.035313 0.209944 0.18345
2009-12-11 07:40:43 51°13.954 2°52.923 15.9334 0.030888 0.183176 0.218274
2009-12-11 07:40:48 51°13.947 2°52.904 15.905 0.03943 0.235041 0.218274
2009-12-11 07:40:53 51°13.941 2°52.886 15.9495 0.030991 0.183814 0.18345
2009-12-11 07:40:58 51°13.932 2°52.868 15.91 0.038915 0.231879 0.218274
2009-12-11 07:41:03 51°13.927 2°52.849 15.9651 0.035108 0.208748 0.18345
2009-12-11 07:41:08 51°13.918 2°52.833 15.9065 0.035108 0.208748 0.18345
2009-12-11 07:41:13 51°13.913 2°52.813 15.9605 0.033461 0.19879 0.218274
2009-12-11 07:41:18 51°13.904 2°52.797 15.9288 0.038401 0.228792 0.218274
2009-12-11 07:41:23 51°13.898 2°52.778 15.9328 0.032226 0.191329 0.18345
2009-12-11 07:41:28 51°13.89 2°52.76 15.9362 0.030683 0.181982 0.18345
2009-12-11 07:41:33 51°13.883 2°52.742 15.9402 0.038298 0.228152 0.18345
2009-12-11 07:41:39 51°13.875 2°52.719 15.9435 0.038298 0.228152 0.18345
2009-12-11 07:41:43 51°13.869 2°52.706 15.9661 0.030065 0.178287 0.18345
2009-12-11 07:41:48 51°13.862 2°52.687 15.9209 0.040973 0.244486 0.18345
2009-12-11 07:41:53 51°13.856 2°52.669 15.9958 0.0313 0.18573 0.218274
2009-12-11 07:41:58 51°13.847 2°52.652 15.937 0.041179 0.245749 0.18345
2009-12-11 07:42:03 51°13.842 2°52.632 16.0062 0.032947 0.195642 0.218274
2009-12-11 07:42:09 51°13.831 2°52.614 15.9771 0.032947 0.195642 0.218274
2009-12-11 07:42:13 51°13.827 2°52.597 15.969 0.039327 0.234441 0.218274
2009-12-11 07:42:18 51°13.819 2°52.581 16.0199 0.033976 0.201874 0.18345
2009-12-11 07:42:23 51°13.812 2°52.563 15.9967 0.034799 0.206876 0.18345
2009-12-11 07:42:28 51°13.805 2°52.545 15.985 0.032432 0.192528 0.18345
2009-12-11 07:42:33 51°13.798 2°52.527 15.9706 0.031609 0.187571 0.18345
2009-12-11 07:42:38 51°13.791 2°52.509 16.0495 0.031609 0.187571 0.18345
2009-12-11 07:42:43 51°13.783 2°52.491 15.9692 0.033049 0.196264 0.18345
2009-12-11 07:42:49 51°13.776 2°52.468 16.0413 0.037166 0.221271 0.218274
2009-12-11 07:42:53 51°13.77 2°52.454 15.9792 0.037474 0.223151 0.18345
2009-12-11 07:42:58 51°13.764 2°52.434 16.0328 0.034078 0.202525 0.18345
2009-12-11 07:43:03 51°13.756 2°52.417 16.0264 0.039533 0.235688 0.18345
2009-12-11 07:43:08 51°13.75 2°52.397 16.0003 0.039533 0.235688 0.18345
2009-12-11 07:43:13 51°13.743 2°52.379 16.0164 0.03202 0.190056 0.18345
2009-12-11 07:43:18 51°13.736 2°52.36 16.0493 0.030374 0.180115 0.18345
2009-12-11 07:43:23 51°13.729 2°52.341 15.9729 0.033976 0.201878 0.18345
2009-12-11 07:43:28 51°13.723 2°52.322 16.076 0.032226 0.19128 0.18345
2009-12-11 07:43:33 51°13.715 2°52.305 15.9912 0.039224 0.233799 0.18345
2009-12-11 07:43:39 51°13.709 2°52.281 16.0544 0.039224 0.233799 0.18345
2009-12-11 07:43:43 51°13.702 2°52.267 16.0096 0.033976 0.201882 0.18345
2009-12-11 07:43:48 51°13.696 2°52.248 16.0029 0.039841 0.237582 0.18345
2009-12-11 07:43:53 51°13.69 2°52.23 16.067 0.032123 0.190663 0.18345
2009-12-11 07:43:58 51°13.682 2°52.212 15.9933 0.035108 0.20874 0.18345
2009-12-11 07:44:03 51°13.676 2°52.193 16.0255 0.037166 0.221232 0.18345
2009-12-11 07:44:08 51°13.668 2°52.175 16.0603 0.037166 0.221232 0.18345
2009-12-11 07:44:13 51°13.662 2°52.156 16.0422 0.032844 0.195023 0.18345
2009-12-11 07:44:18 51°13.655 2°52.137 16.0301 0.030271 0.179457 0.218274
2009-12-11 07:44:24 51°13.646 2°52.116 16.0531 0.033667 0.199962 0.18345
2009-12-11 07:44:28 51°13.641 2°52.1 16.0643 0.030168 0.178886 0.218274
2009-12-11 07:44:33 51°13.634 2°52.082 16.0186 0.033358 0.198124 0.18345
2009-12-11 07:44:38 51°13.627 2°52.062 16.0681 0.033358 0.198124 0.18345
2009-12-11 07:44:43 51°13.62 2°52.045 16.0376 0.031094 0.184467 0.18345
2009-12-11 07:44:49 51°13.612 2°52.022 16.0355 0.032741 0.194409 0.18345
2009-12-11 07:44:53 51°13.607 2°52.007 16.094 0.030168 0.178889 0.18345
2009-12-11 07:44:58 51°13.599 2°51.989 16.012 0.040973 0.244495 0.18345
2009-12-11 07:45:03 51°13.594 2°51.969 16.078 0.03377 0.200635 0.18345
2009-12-11 07:45:09 51°13.584 2°51.948 16.0621 0.03377 0.200635 0.18345
2009-12-11 07:45:13 51°13.58 2°51.932 16.0555 0.038504 0.229393 0.18345
2009-12-11 07:45:18 51°13.573 2°51.914 16.122 0.03058 0.181341 0.218274
2009-12-11 07:45:23 51°13.565 2°51.897 16.0274 0.041179 0.245715 0.18345
2009-12-11 07:45:28 51°13.56 2°51.876 16.1229 0.032844 0.195016 0.18345
2009-12-11 07:45:33 51°13.551 2°51.861 16.0602 0.04015 0.239449 0.18345
2009-12-11 07:45:38 51°13.545 2°51.841 16.1313 0.04015 0.239449 0.18345
2009-12-11 07:45:43 51°13.537 2°51.825 16.0782 0.032844 0.194982 0.18345
2009-12-11 07:45:49 51°13.529 2°51.801 16.0538 0.040665 0.242612 0.18345
2009-12-11 07:45:53 51°13.524 2°51.788 16.1624 0.033461 0.198735 0.18345
2009-12-11 07:45:58 51°13.515 2°51.77 16.0213 0.039533 0.23567 0.18345
2009-12-11 07:46:03 51°13.51 2°51.751 16.1396 0.031815 0.188806 0.18345
2009-12-11 07:46:08 51°13.502 2°51.734 16.0815 0.031815 0.188806 0.18345
2009-12-11 07:46:13 51°13.496 2°51.714 16.1181 0.036034 0.214384 0.18345
2009-12-11 07:46:18 51°13.488 2°51.697 16.0982 0.034799 0.2069 0.18345
2009-12-11 07:46:24 51°13.482 2°51.673 16.106 0.037783 0.225035 0.18345
2009-12-11 07:46:28 51°13.475 2°51.659 16.0848 0.033461 0.198774 0.18345
2009-12-11 07:46:33 51°13.469 2°51.64 16.1479 0.032844 0.194993 0.18345
2009-12-11 07:46:38 51°13.461 2°51.622 16.0808 0.032844 0.194993 0.18345
2009-12-11 07:46:43 51°13.456 2°51.603 16.1296 0.031609 0.187509 0.18345
2009-12-11 07:46:49 51°13.447 2°51.58 16.0955 0.032535 0.193116 0.18345
2009-12-11 07:46:53 51°13.442 2°51.565 16.1694 0.029859 0.176983 0.18345
2009-12-11 07:46:58 51°13.434 2°51.547 16.1139 0.041694 0.248883 0.18345
2009-12-11 07:47:03 51°13.429 2°51.527 16.1071 0.031609 0.187563 0.18345
2009-12-11 07:47:09 51°13.419 2°51.507 16.1667 0.031609 0.187563 0.18345
2009-12-11 07:47:13 51°13.415 2°51.491 16.1101 0.041488 0.247613 0.18345
2009-12-11 07:47:18 51°13.409 2°51.473 16.1795 0.03377 0.200612 0.18345
2009-12-11 07:47:23 51°13.401 2°51.454 16.0827 0.03696 0.220002 0.18345
2009-12-11 07:47:28 51°13.395 2°51.436 16.1395 0.038504 0.229375 0.18345
2009-12-11 07:47:34 51°13.386 2°51.413 16.1304 0.036445 0.216873 0.218274
2009-12-11 07:47:38 51°13.381 2°51.399 16.1319 0.036445 0.216873 0.218274
2009-12-11 07:47:43 51°13.374 2°51.381 16.1954 0.03202 0.190041 0.18345
2009-12-11 07:47:48 51°13.366 2°51.362 16.0779 0.03943 0.235037 0.18345
2009-12-11 07:47:54 51°13.36 2°51.341 16.2103 0.031403 0.186311 0.18345
2009-12-11 07:47:58 51°13.354 2°51.33 16.0964 0.033873 0.201219 0.18345
2009-12-11 07:48:03 51°13.349 2°51.315 16.153 0.033976 0.201842 0.18345
2009-12-11 07:48:08 51°13.342 2°51.304 16.1259 0.033976 0.201842 0.18345
2009-12-11 07:48:13 51°13.338 2°51.293 16.1877 0.035725 0.212496 0.18345
2009-12-11 07:48:19 51°13.331 2°51.283 16.146 0.033564 0.199397 0.18345
2009-12-11 07:48:23 51°13.327 2°51.277 16.1278 0.034902 0.207467 0.18345
2009-12-11 07:48:28 51°13.322 2°51.27 16.1487 0.033873 0.20127 0.18345
2009-12-11 07:48:33 51°13.316 2°51.267 16.0892 0.031712 0.188159 0.18345
2009-12-11 07:48:38 51°13.312 2°51.263 16.1518 0.031712 0.188159 0.18345
2009-12-11 07:48:43 51°13.307 2°51.263 16.137 0.03058 0.181334 0.18345
2009-12-11 07:48:49 51°13.301 2°51.261 16.1309 0.030477 0.180717 0.18345
2009-12-11 07:48:53 51°13.298 2°51.262 16.1499 0.032123 0.19064 0.18345
2009-12-11 07:48:58 51°13.293 2°51.263 16.1245 0.029139 0.172632 0.18345
2009-12-11 07:49:03 51°13.289 2°51.264 16.1634 0.029242 0.173237 0.18345
2009-12-11 07:49:09 51°13.284 2°51.267 16.1502 0.029242 0.173237 0.18345
2009-12-11 07:49:13 51°13.281 2°51.27 16.1587 0.029551 0.175102 0.18345
2009-12-11 07:49:18 51°13.277 2°51.274 16.1572 0.02883 0.170761 0.18345
2009-12-11 07:49:23 51°13.274 2°51.278 16.1382 0.028727 0.17014 0.18345
2009-12-11 07:49:28 51°13.271 2°51.284 16.1535 0.028521 0.168901 0.18345
2009-12-11 07:49:33 51°13.268 2°51.289 16.153 0.028521 0.168901 0.18345
2009-12-11 07:49:38 51°13.265 2°51.294 16.144 0.028521 0.168901 0.18345
2009-12-11 07:49:43 51°13.263 2°51.299 16.1473 0.029036 0.171987 0.18345
2009-12-11 07:49:48 51°13.261 2°51.305 16.1827 0.029756 0.17633 0.18345
2009-12-11 07:49:53 51°13.26 2°51.309 16.1697 0.029139 0.172602 0.18345
2009-12-11 07:49:58 51°13.259 2°51.314 16.1706 0.029036 0.17199 0.18345
2009-12-11 07:50:03 51°13.258 2°51.318 16.1703 0.02883 0.17078 0.18345
2009-12-11 07:50:08 51°13.258 2°51.321 16.1649 0.02883 0.17078 0.18345
2009-12-11 07:50:13 51°13.257 2°51.324 16.1583 0.02883 0.170843 0.18345
2009-12-11 07:50:19 51°13.257 2°51.327 16.1576 0.028419 0.16839 0.18345
2009-12-11 07:50:24 51°13.257 2°51.33 16.1561 0.028316 0.167759 0.18345
2009-12-11 07:50:28 51°13.257 2°51.331 16.1573 0.030785 0.182581 0.18345
2009-12-11 07:50:33 51°13.257 2°51.335 16.4244 0.028727 0.170179 0.18345
2009-12-11 07:50:38 51°13.257 2°51.338 16.4792 0.028727 0.170179 0.18345
2009-12-11 07:50:43 51°13.257 2°51.339 16.4467 0.028521 0.168908 0.18345
2009-12-11 07:50:49 51°13.258 2°51.342 16.3853 0.028727 0.170189 0.18345
2009-12-11 07:50:53 51°13.257 2°51.343 16.407 0.031094 0.184438 0.18345
2009-12-11 07:50:58 51°13.257 2°51.344 16.3699 0.030683 0.181964 0.18345
2009-12-11 07:51:04 51°13.258 2°51.346 16.3666 0.029345 0.173902 0.18345
2009-12-11 07:51:09 51°13.258 2°51.348 16.3512 0.029345 0.173902 0.18345
2009-12-11 07:51:13 51°13.258 2°51.348 16.3071 0.030888 0.183212 0.18345
2009-12-11 07:51:18 51°13.258 2°51.35 16.2983 0.032226 0.191299 0.18345
2009-12-11 07:51:23 51°13.258 2°51.351 16.3 0.032123 0.190696 0.18345
2009-12-11 07:51:29 51°13.259 2°51.352 16.306 0.031917 0.189457 0.18345
2009-12-11 07:51:33 51°13.259 2°51.354 16.3097 0.030271 0.179523 0.18345
2009-12-11 07:51:38 51°13.259 2°51.355 16.3264 0.030271 0.179523 0.18345
2009-12-11 07:51:43 51°13.259 2°51.356 16.3504 0.029551 0.175163 0.18345
2009-12-11 07:51:49 51°13.259 2°51.358 16.3175 0.034593 0.20562 0.18345
2009-12-11 07:51:54 51°13.26 2°51.36 16.3246 0.032741 0.194348 0.18345
2009-12-11 07:51:58 51°13.259 2°51.36 16.3199 0.031403 0.186282 0.18345
2009-12-11 07:52:03 51°13.26 2°51.362 16.3142 0.030477 0.180721 0.18345
2009-12-11 07:52:08 51°13.26 2°51.363 16.3349 0.030477 0.180721 0.18345
2009-12-11 07:52:14 51°13.259 2°51.364 16.3243 0.029859 0.177014 0.18345
2009-12-11 07:52:18 51°13.259 2°51.365 16.3276 0.029653 0.175769 0.18345
2009-12-11 07:52:23 51°13.259 2°51.367 16.3232 0.029962 0.177623 0.18345
2009-12-11 07:52:29 51°13.258 2°51.368 16.3445 0.031094 0.184445 0.18345
2009-12-11 07:52:33 51°13.259 2°51.37 16.3283 0.029242 0.173283 0.18345
2009-12-11 07:52:38 51°13.259 2°51.372 16.3262 0.029242 0.173283 0.18345
2009-12-11 07:52:43 51°13.259 2°51.373 16.3491 0.029139 0.172648 0.18345
2009-12-11 07:52:49 51°13.259 2°51.375 16.3327 0.028624 0.169558 0.18345
2009-12-11 07:52:53 51°13.259 2°51.376 16.3353 0.029036 0.172027 0.18345
2009-12-11 07:52:58 51°13.259 2°51.377 16.338 0.029036 0.172017 0.18345
2009-12-11 07:53:03 51°13.259 2°51.379 16.3509 0.028419 0.168303 0.18345
2009-12-11 07:53:09 51°13.259 2°51.381 16.3608 0.028419 0.168303 0.18345
2009-12-11 07:53:13 51°13.26 2°51.383 16.3489 0.028521 0.168914 0.18345
2009-12-11 07:53:18 51°13.259 2°51.384 16.3537 0.028213 0.167052 0.18345
2009-12-11 07:53:24 51°13.259 2°51.386 16.3521 0.02811 0.166425 0.18345
2009-12-11 07:53:29 51°13.26 2°51.387 16.3553 0.028316 0.167657 0.18345
2009-12-11 07:53:33 51°13.259 2°51.388 16.3629 0.029139 0.172592 0.18345
2009-12-11 07:53:38 51°13.259 2°51.39 16.3588 0.029139 0.172592 0.18345
2009-12-11 07:53:43 51°13.259 2°51.391 16.399 0.028521 0.168888 0.18345
2009-12-11 07:53:49 51°13.259 2°51.393 16.3618 0.028933 0.171356 0.18345
2009-12-11 07:53:53 51°13.259 2°51.394 16.3811 0.030271 0.179398 0.18345
2009-12-11 07:53:58 51°13.259 2°51.396 16.3716 0.028727 0.17012 0.18345
2009-12-11 07:54:03 51°13.26 2°51.398 16.3659 0.028213 0.167027 0.18345
2009-12-11 07:54:09 51°13.259 2°51.399 16.4015 0.028213 0.167027 0.18345
2009-12-11 07:54:13 51°13.26 2°51.401 16.3678 0.029448 0.17443 0.18345
2009-12-11 07:54:18 51°13.259 2°51.402 16.3942 0.030991 0.183707 0.18345
2009-12-11 07:54:23 51°13.259 2°51.404 16.4152 0.030065 0.178156 0.18345
2009-12-11 07:54:28 51°13.26 2°51.406 16.3754 0.030065 0.17819 0.18345
2009-12-11 07:54:33 51°13.259 2°51.408 16.4053 0.029448 0.174487 0.18345
2009-12-11 07:54:38 51°13.26 2°51.409 16.3873 0.029448 0.174487 0.18345
2009-12-11 07:54:43 51°13.26 2°51.411 16.4072 0.029756 0.176357 0.18345
2009-12-11 07:54:48 51°13.261 2°51.413 16.3873 0.029448 0.174497 0.18345
2009-12-11 07:54:53 51°13.26 2°51.414 16.4213 0.030271 0.17944 0.18345
2009-12-11 07:54:58 51°13.261 2°51.416 16.395 0.030477 0.180682 0.18345
2009-12-11 07:55:03 51°13.261 2°51.418 16.3962 0.031094 0.184431 0.18345
2009-12-11 07:55:08 51°13.261 2°51.42 16.3903 0.031094 0.184431 0.18345
2009-12-11 07:55:13 51°13.261 2°51.422 16.3972 0.030477 0.180714 0.18345
2009-12-11 07:55:18 51°13.261 2°51.423 16.404 0.028727 0.170195 0.18345
2009-12-11 07:55:23 51°13.261 2°51.425 16.3984 0.028419 0.168329 0.18345
2009-12-11 07:55:29 51°13.261 2°51.427 16.394 0.029242 0.17325 0.18345
2009-12-11 07:55:33 51°13.26 2°51.428 16.4183 0.028624 0.169522 0.18345
2009-12-11 07:55:38 51°13.261 2°51.431 16.4082 0.028624 0.169522 0.18345
2009-12-11 07:55:43 51°13.26 2°51.432 16.41 0.027801 0.164578 0.18345
2009-12-11 07:55:49 51°13.26 2°51.434 16.4177 0.02811 0.166425 0.18345
2009-12-11 07:55:53 51°13.261 2°51.436 16.4055 0.028007 0.165824 0.18345
2009-12-11 07:55:58 51°13.261 2°51.438 16.4065 0.027904 0.165204 0.18345
2009-12-11 07:56:03 51°13.261 2°51.44 16.4101 0.027698 0.163961 0.18345
2009-12-11 07:56:09 51°13.261 2°51.442 16.4115 0.027698 0.163961 0.18345
2009-12-11 07:56:13 51°13.261 2°51.444 16.412 0.027801 0.164584 0.18345
2009-12-11 07:56:18 51°13.261 2°51.446 16.4049 0.028007 0.165812 0.18345
2009-12-11 07:56:23 51°13.261 2°51.447 16.4083 0.028316 0.167666 0.18345
2009-12-11 07:56:28 51°13.261 2°51.449 16.4248 0.028007 0.165821 0.18345
2009-12-11 07:56:33 51°13.261 2°51.451 16.4364 0.028521 0.168908 0.18345
2009-12-11 07:56:38 51°13.261 2°51.453 16.4121 0.028521 0.168908 0.18345
2009-12-11 07:56:43 51°13.262 2°51.455 16.4153 0.028624 0.169519 0.18345
2009-12-11 07:56:48 51°13.261 2°51.457 16.4199 0.027904 0.165169 0.18345
2009-12-11 07:56:53 51°13.262 2°51.459 16.4321 0.027698 0.163923 0.18345
2009-12-11 07:56:58 51°13.261 2°51.461 16.4322 0.027595 0.163304 0.18345
2009-12-11 07:57:03 51°13.262 2°51.463 16.4204 0.028316 0.167637 0.18345
2009-12-11 07:57:08 51°13.262 2°51.465 16.4204 0.028316 0.167637 0.18345
2009-12-11 07:57:13 51°13.262 2°51.467 16.4246 0.028007 0.165777 0.18345
2009-12-11 07:57:18 51°13.262 2°51.469 16.4169 0.029859 0.176894 0.18345
2009-12-11 07:57:23 51°13.261 2°51.471 16.4499 0.028624 0.16948 0.18345
2009-12-11 07:57:28 51°13.262 2°51.474 16.4311 0.028007 0.165767 0.18345
2009-12-11 07:57:33 51°13.262 2°51.477 16.4381 0.027904 0.165138 0.18345
2009-12-11 07:57:38 51°13.261 2°51.481 16.4258 0.027904 0.165138 0.18345
2009-12-11 07:57:43 51°13.261 2°51.486 16.4227 0.027801 0.164515 0.18345
2009-12-11 07:57:49 51°13.26 2°51.493 16.4456 0.028007 0.165745 0.18345
2009-12-11 07:57:53 51°13.259 2°51.498 16.4922 0.027595 0.16327 0.18345
2009-12-11 07:57:58 51°13.257 2°51.505 16.4574 0.027492 0.162632 0.18345
2009-12-11 07:58:04 51°13.254 2°51.514 16.4563 0.028727 0.170071 0.18345
2009-12-11 07:58:08 51°13.251 2°51.519 16.5025 0.028727 0.170071 0.18345
2009-12-11 07:58:14 51°13.246 2°51.526 16.4762 0.028316 0.167624 0.18345
2009-12-11 07:58:18 51°13.243 2°51.531 16.4772 0.028624 0.169483 0.18345
2009-12-11 07:58:23 51°13.238 2°51.535 16.4901 0.02811 0.166451 0.18345
2009-12-11 07:58:28 51°13.233 2°51.539 16.5061 0.031712 0.188152 0.18345
2009-12-11 07:58:34 51°13.227 2°51.54 16.4707 0.029756 0.176323 0.18345
2009-12-11 07:58:38 51°13.223 2°51.541 16.515 0.029756 0.176323 0.18345
2009-12-11 07:58:43 51°13.218 2°51.541 16.4746 0.029242 0.17323 0.148626
2009-12-11 07:58:48 51°13.215 2°51.539 16.5133 0.028521 0.168911 0.18345
2009-12-11 07:58:54 51°13.209 2°51.537 16.4732 0.036754 0.218647 0.18345
2009-12-11 07:58:58 51°13.207 2°51.534 16.4717 0.035108 0.208667 0.18345
2009-12-11 07:59:04 51°13.202 2°51.53 16.4533 0.033873 0.2012 0.18345
2009-12-11 07:59:08 51°13.2 2°51.527 16.4882 0.033873 0.2012 0.18345
2009-12-11 07:59:13 51°13.195 2°51.522 16.4718 0.031403 0.186246 0.18345
2009-12-11 07:59:18 51°13.192 2°51.516 16.4872 0.030785 0.182535 0.18345
2009-12-11 07:59:24 51°13.186 2°51.51 16.4797 0.031506 0.186859 0.18345
2009-12-11 07:59:29 51°13.181 2°51.505 16.4966 0.031197 0.184944 0.18345
2009-12-11 07:59:33 51°13.177 2°51.499 16.5222 0.029859 0.176887 0.18345
2009-12-11 07:59:38 51°13.172 2°51.493 16.5007 0.029859 0.176887 0.18345
2009-12-11 07:59:44 51°13.167 2°51.484 16.4996 0.033358 0.198066 0.18345
2009-12-11 07:59:48 51°13.163 2°51.479 16.513 0.031094 0.184392 0.18345
2009-12-11 07:59:53 51°13.158 2°51.471 16.5034 0.030374 0.180042 0.18345
2009-12-11 07:59:58 51°13.154 2°51.464 16.5483 0.030271 0.179422 0.148626
2009-12-11 08:00:04 51°13.149 2°51.455 16.4633 0.032329 0.191876 0.18345
2009-12-11 08:00:09 51°13.146 2°51.447 16.563 0.032329 0.191876 0.18345
2009-12-11 08:00:13 51°13.143 2°51.442 16.4819 0.038915 0.231866 0.148626
2009-12-11 08:00:18 51°13.141 2°51.434 16.545 0.033667 0.199962 0.18345
2009-12-11 08:00:23 51°13.137 2°51.428 16.4897 0.035931 0.213679 0.18345
2009-12-11 08:00:28 51°13.135 2°51.421 16.518 0.037474 0.223028 0.18345
2009-12-11 08:00:34 51°13.133 2°51.412 16.512 0.031917 0.189431 0.18345
2009-12-11 08:00:38 51°13.131 2°51.408 16.5604 0.031917 0.189431 0.18345
2009-12-11 08:00:43 51°13.128 2°51.402 16.532 0.034799 0.206843 0.148626
2009-12-11 08:00:49 51°13.125 2°51.394 16.534 0.03202 0.190037 0.18345
2009-12-11 08:00:54 51°13.125 2°51.388 16.5366 0.032432 0.192558 0.18345
2009-12-11 08:00:58 51°13.122 2°51.383 16.5304 0.033873 0.201219 0.18345
2009-12-11 08:01:03 51°13.121 2°51.377 16.5813 0.032638 0.193794 0.148626
2009-12-11 08:01:08 51°13.118 2°51.372 16.5104 0.032638 0.193794 0.148626
2009-12-11 08:01:14 51°13.117 2°51.364 16.5763 0.034284 0.203732 0.18345
2009-12-11 08:01:18 51°13.115 2°51.36 16.5099 0.035005 0.208083 0.18345
2009-12-11 08:01:24 51°13.114 2°51.352 16.5595 0.03377 0.200596 0.148626
2009-12-11 08:01:28 51°13.113 2°51.348 16.5482 0.034078 0.202517 0.18345
2009-12-11 08:01:33 51°13.112 2°51.342 16.5397 0.036342 0.21626 0.18345
2009-12-11 08:01:38 51°13.111 2°51.336 16.5828 0.036342 0.21626 0.18345
2009-12-11 08:01:44 51°13.109 2°51.33 16.5377 0.034799 0.206868 0.148626
2009-12-11 08:01:49 51°13.108 2°51.324 16.5438 0.031609 0.187567 0.18345
2009-12-11 08:01:53 51°13.107 2°51.319 16.5634 0.032947 0.195623 0.18345
2009-12-11 08:01:58 51°13.106 2°51.313 16.5279 0.032947 0.195627 0.18345
2009-12-11 08:02:04 51°13.105 2°51.305 16.5519 0.030785 0.182584 0.18345
2009-12-11 08:02:08 51°13.104 2°51.3 16.5699 0.030785 0.182584 0.18345
2009-12-11 08:02:13 51°13.103 2°51.294 16.5612 0.030785 0.182563 0.18345
2009-12-11 08:02:18 51°13.102 2°51.288 16.557 0.030888 0.183201 0.18345
2009-12-11 08:02:24 51°13.101 2°51.281 16.5662 0.030477 0.180728 0.18345
2009-12-11 08:02:29 51°13.099 2°51.274 16.5525 0.030271 0.179464 0.18345
2009-12-11 08:02:33 51°13.098 2°51.269 16.5749 0.029859 0.176973 0.18345
2009-12-11 08:02:38 51°13.097 2°51.262 16.5631 0.029859 0.176973 0.18345
2009-12-11 08:02:44 51°13.096 2°51.254 16.5883 0.029345 0.173872 0.18345
2009-12-11 08:02:49 51°13.095 2°51.247 16.5846 0.029345 0.173865 0.148626
2009-12-11 08:02:54 51°13.094 2°51.24 16.5726 0.029756 0.176337 0.148626
2009-12-11 08:02:58 51°13.093 2°51.234 16.5792 0.030168 0.17883 0.18345
2009-12-11 08:03:03 51°13.092 2°51.228 16.5865 0.030477 0.180707 0.18345
2009-12-11 08:03:08 51°13.091 2°51.221 16.5764 0.030477 0.180707 0.18345
2009-12-11 08:03:14 51°13.09 2°51.212 16.5844 0.029242 0.17328 0.18345
2009-12-11 08:03:18 51°13.09 2°51.206 16.5957 0.029859 0.176973 0.18345
2009-12-11 08:03:23 51°13.089 2°51.199 16.573 0.031609 0.187516 0.18345
2009-12-11 08:03:28 51°13.088 2°51.192 16.5822 0.031506 0.186935 0.148626
2009-12-11 08:03:34 51°13.087 2°51.184 16.6083 0.031815 0.188817 0.148626
2009-12-11 08:03:38 51°13.085 2°51.179 16.578 0.031815 0.188817 0.148626
2009-12-11 08:03:44 51°13.085 2°51.17 16.5865 0.031815 0.18882 0.18345
2009-12-11 08:03:48 51°13.084 2°51.164 16.5864 0.031815 0.188784 0.18345
2009-12-11 08:03:53 51°13.084 2°51.157 16.6 0.03058 0.181312 0.148626
2009-12-11 08:03:58 51°13.082 2°51.15 16.6017 0.032844 0.19497 0.18345
2009-12-11 08:04:03 51°13.082 2°51.143 16.5992 0.0313 0.185636 0.148626
2009-12-11 08:04:09 51°13.081 2°51.135 16.6005 0.0313 0.185636 0.148626
2009-12-11 08:04:13 51°13.08 2°51.129 16.6022 0.030785 0.182531 0.18345
2009-12-11 08:04:18 51°13.08 2°51.122 16.5968 0.030888 0.183151 0.18345
2009-12-11 08:04:24 51°13.079 2°51.113 16.6076 0.030168 0.178806 0.18345
2009-12-11 08:04:29 51°13.078 2°51.106 16.593 0.029756 0.176316 0.148626
2009-12-11 08:04:33 51°13.078 2°51.1 16.6223 0.032535 0.193063 0.18345
2009-12-11 08:04:38 51°13.077 2°51.093 16.6261 0.032535 0.193063 0.18345
2009-12-11 08:04:44 51°13.077 2°51.084 16.6063 0.030991 0.183768 0.18345
2009-12-11 08:04:48 51°13.076 2°51.078 16.6083 0.031094 0.184388 0.148626
2009-12-11 08:04:53 51°13.076 2°51.07 16.6273 0.030477 0.180665 0.148626
2009-12-11 08:04:58 51°13.075 2°51.063 16.6256 0.030374 0.180035 0.18345
2009-12-11 08:05:03 51°13.074 2°51.056 16.6299 0.029859 0.176928 0.18345
2009-12-11 08:05:09 51°13.074 2°51.048 16.6421 0.029859 0.176928 0.18345
2009-12-11 08:05:13 51°13.072 2°51.043 16.61 0.032329 0.191801 0.18345
2009-12-11 08:05:18 51°13.071 2°51.036 16.6115 0.032329 0.191835 0.18345
2009-12-11 08:05:23 51°13.068 2°51.029 16.6333 0.029962 0.177551 0.148626
2009-12-11 08:05:28 51°13.066 2°51.023 16.6397 0.029653 0.175637 0.18345
2009-12-11 08:05:33 51°13.064 2°51.017 16.6336 0.029551 0.175015 0.18345
2009-12-11 08:05:38 51°13.062 2°51.011 16.6282 0.029551 0.175015 0.18345
2009-12-11 08:05:43 51°13.06 2°51.005 16.6326 0.029036 0.171924 0.148626
2009-12-11 08:05:48 51°13.057 2°50.999 16.6471 0.029242 0.173163 0.18345
2009-12-11 08:05:53 51°13.055 2°50.993 16.6332 0.02883 0.170702 0.148626
2009-12-11 08:05:58 51°13.053 2°50.987 16.6411 0.02883 0.170728 0.18345
2009-12-11 08:06:03 51°13.05 2°50.981 16.6396 0.029653 0.175687 0.148626
2009-12-11 08:06:08 51°13.048 2°50.976 16.6794 0.029653 0.175687 0.148626
2009-12-11 08:06:13 51°13.045 2°50.97 16.6464 0.029859 0.176911 0.148626
2009-12-11 08:06:18 51°13.043 2°50.964 16.6436 0.033667 0.199997 0.18345
2009-12-11 08:06:23 51°13.039 2°50.96 16.6692 0.034902 0.207467 0.18345
2009-12-11 08:06:28 51°13.037 2°50.954 16.6492 0.033461 0.198739 0.148626
2009-12-11 08:06:33 51°13.035 2°50.948 16.646 0.032123 0.190614 0.148626
2009-12-11 08:06:38 51°13.032 2°50.943 16.6462 0.032123 0.190614 0.148626
2009-12-11 08:06:43 51°13.029 2°50.937 16.6708 0.030888 0.183144 0.18345
2009-12-11 08:06:49 51°13.027 2°50.93 16.6781 0.033873 0.201141 0.148626
2009-12-11 08:06:53 51°13.024 2°50.926 16.6609 0.034799 0.206754 0.18345
2009-12-11 08:06:58 51°13.022 2°50.919 16.6804 0.032329 0.191854 0.18345
2009-12-11 08:07:03 51°13.019 2°50.915 16.6552 0.032741 0.194307 0.18345
2009-12-11 08:07:09 51°13.016 2°50.907 16.6715 0.032741 0.194307 0.18345
2009-12-11 08:07:13 51°13.013 2°50.903 16.6773 0.031609 0.18752 0.148626
2009-12-11 08:07:18 51°13.011 2°50.897 16.6681 0.031403 0.186271 0.148626
2009-12-11 08:07:23 51°13.008 2°50.891 16.6678 0.030683 0.181932 0.18345
2009-12-11 08:07:29 51°13.005 2°50.884 16.678 0.030785 0.182538 0.18345
2009-12-11 08:07:33 51°13.003 2°50.879 16.673 0.030374 0.180052 0.148626
2009-12-11 08:07:38 51°13 2°50.872 16.6716 0.030374 0.180052 0.148626
2009-12-11 08:07:43 51°12.998 2°50.866 16.6808 0.031917 0.189324 0.18345
2009-12-11 08:07:48 51°12.994 2°50.861 16.6812 0.030785 0.182503 0.148626
2009-12-11 08:07:53 51°12.992 2°50.854 16.677 0.029859 0.177 0.148626
2009-12-11 08:07:58 51°12.989 2°50.847 16.6863 0.029653 0.175799 0.18345
2009-12-11 08:08:04 51°12.986 2°50.84 16.6804 0.031815 0.188802 0.18345
2009-12-11 08:08:08 51°12.984 2°50.834 16.6812 0.031815 0.188802 0.18345
2009-12-11 08:08:13 51°12.981 2°50.828 16.705 0.033564 0.199366 0.18345
2009-12-11 08:08:18 51°12.978 2°50.822 16.7229 0.029859 0.17699 0.18345
2009-12-11 08:08:24 51°12.975 2°50.814 16.709 0.033976 0.201846 0.18345
2009-12-11 08:08:28 51°12.973 2°50.809 16.6807 0.03449 0.20498 0.18345
2009-12-11 08:08:33 51°12.971 2°50.802 16.696 0.030888 0.183226 0.18345
2009-12-11 08:08:38 51°12.967 2°50.796 16.698 0.030888 0.183226 0.18345
2009-12-11 08:08:44 51°12.965 2°50.788 16.7168 0.030374 0.180125 0.148626
2009-12-11 08:08:49 51°12.963 2°50.782 16.7277 0.030683 0.182013 0.18345
2009-12-11 08:08:53 51°12.96 2°50.777 16.695 0.035519 0.211271 0.148626
2009-12-11 08:08:58 51°12.959 2°50.77 16.7036 0.033255 0.197552 0.148626
2009-12-11 08:09:04 51°12.957 2°50.761 16.7195 0.031815 0.188839 0.148626
2009-12-11 08:09:09 51°12.954 2°50.755 16.7071 0.031815 0.188839 0.148626
2009-12-11 08:09:13 51°12.953 2°50.749 16.7269 0.032535 0.193183 0.18345
2009-12-11 08:09:18 51°12.951 2°50.743 16.7348 0.032329 0.191932 0.18345
2009-12-11 08:09:24 51°12.95 2°50.734 16.7243 0.031197 0.185073 0.148626
2009-12-11 08:09:29 51°12.948 2°50.727 16.7213 0.031094 0.184449 0.18345
2009-12-11 08:09:34 51°12.947 2°50.72 16.7229 0.031094 0.184442 0.148626
2009-12-11 08:09:38 51°12.946 2°50.713 16.7235 0.031094 0.184442 0.148626
2009-12-11 08:09:43 51°12.945 2°50.706 16.7162 0.030888 0.183208 0.148626
2009-12-11 08:09:48 51°12.945 2°50.698 16.7355 0.029448 0.174521 0.148626
2009-12-11 08:09:54 51°12.944 2°50.689 16.7451 0.033049 0.196264 0.148626
2009-12-11 08:09:58 51°12.943 2°50.683 16.7415 0.032947 0.195653 0.18345
2009-12-11 08:10:03 51°12.943 2°50.675 16.7519 0.030991 0.183843 0.148626
2009-12-11 08:10:08 51°12.941 2°50.667 16.7386 0.030991 0.183843 0.148626
2009-12-11 08:10:14 51°12.941 2°50.658 16.7385 0.031815 0.18882 0.148626
2009-12-11 08:10:18 51°12.941 2°50.652 16.7452 0.029859 0.17702 0.148626
2009-12-11 08:10:23 51°12.94 2°50.644 16.7354 0.02883 0.170797 0.148626
2009-12-11 08:10:28 51°12.939 2°50.636 16.7385 0.028727 0.170172 0.18345
2009-12-11 08:10:33 51°12.939 2°50.628 16.7452 0.028727 0.170166 0.18345
2009-12-11 08:10:38 51°12.938 2°50.62 16.7437 0.028727 0.170166 0.18345
2009-12-11 08:10:43 51°12.938 2°50.612 16.7441 0.029242 0.173253 0.148626
2009-12-11 08:10:48 51°12.938 2°50.604 16.763 0.029139 0.172632 0.148626
2009-12-11 08:10:53 51°12.936 2°50.597 16.7567 0.034799 0.206896 0.148626
2009-12-11 08:10:58 51°12.936 2°50.589 16.7545 0.033255 0.197571 0.148626
2009-12-11 08:11:03 51°12.936 2°50.581 16.761 0.030888 0.183247 0.18345
2009-12-11 08:11:09 51°12.935 2°50.572 16.7475 0.030888 0.183247 0.18345
2009-12-11 08:11:13 51°12.934 2°50.565 16.7632 0.030683 0.181975 0.18345
2009-12-11 08:11:18 51°12.934 2°50.558 16.77 0.031609 0.187563 0.18345
2009-12-11 08:11:23 51°12.932 2°50.55 16.7601 0.032329 0.191947 0.18345
2009-12-11 08:11:29 51°12.932 2°50.54 16.7615 0.029448 0.174561 0.148626
2009-12-11 08:11:33 51°12.931 2°50.534 16.7648 0.028624 0.169584 0.18345
2009-12-11 08:11:38 51°12.931 2°50.526 16.7642 0.028624 0.169584 0.18345
2009-12-11 08:11:43 51°12.93 2°50.519 16.7635 0.028624 0.169577 0.148626
2009-12-11 08:11:49 51°12.929 2°50.509 16.7752 0.028933 0.171425 0.148626
2009-12-11 08:11:53 51°12.928 2°50.503 16.7795 0.032844 0.195031 0.148626
2009-12-11 08:11:58 51°12.927 2°50.495 16.7753 0.031815 0.188846 0.148626
2009-12-11 08:12:03 51°12.926 2°50.487 16.7892 0.030888 0.183286 0.148626
2009-12-11 08:12:08 51°12.924 2°50.48 16.7813 0.030888 0.183286 0.148626
2009-12-11 08:12:13 51°12.923 2°50.472 16.7885 0.031815 0.188905 0.148626
2009-12-11 08:12:18 51°12.921 2°50.464 16.7879 0.029859 0.177041 0.18345
2009-12-11 08:12:23 51°12.919 2°50.457 16.779 0.033255 0.197502 0.148626
2009-12-11 08:12:28 51°12.919 2°50.449 16.7853 0.031712 0.188192 0.148626
2009-12-11 08:12:33 51°12.917 2°50.442 16.7917 0.031917 0.189457 0.18345
2009-12-11 08:12:38 51°12.915 2°50.434 16.7847 0.031917 0.189457 0.18345
2009-12-11 08:12:43 51°12.915 2°50.426 16.7895 0.031917 0.189457 0.148626
2009-12-11 08:12:48 51°12.913 2°50.418 16.8088 0.032535 0.193187 0.148626
2009-12-11 08:12:53 51°12.911 2°50.412 16.7904 0.035519 0.211267 0.148626
2009-12-11 08:12:58 51°12.91 2°50.403 16.7954 0.032123 0.190696 0.148626
2009-12-11 08:13:03 51°12.909 2°50.396 16.7941 0.031197 0.185073 0.148626
2009-12-11 08:13:08 51°12.907 2°50.388 16.7961 0.031197 0.185073 0.148626
2009-12-11 08:13:13 51°12.905 2°50.38 16.804 0.031094 0.184438 0.148626
2009-12-11 08:13:18 51°12.904 2°50.373 16.8033 0.029962 0.177606 0.18345
2009-12-11 08:13:23 51°12.902 2°50.365 16.8055 0.030271 0.179457 0.148626
2009-12-11 08:13:29 51°12.901 2°50.355 16.8029 0.029962 0.177595 0.18345
2009-12-11 08:13:33 51°12.899 2°50.349 16.8043 0.029036 0.17203 0.148626
2009-12-11 08:13:38 51°12.898 2°50.341 16.813 0.029036 0.17203 0.148626
2009-12-11 08:13:43 51°12.896 2°50.334 16.809 0.028419 0.168319 0.148626
2009-12-11 08:13:49 51°12.895 2°50.324 16.8177 0.029551 0.175119 0.148626
2009-12-11 08:13:53 51°12.894 2°50.318 16.8121 0.029139 0.172645 0.148626
2009-12-11 08:13:58 51°12.892 2°50.31 16.8198 0.029242 0.173263 0.148626
2009-12-11 08:14:03 51°12.89 2°50.303 16.8231 0.029036 0.17203 0.148626
2009-12-11 08:14:09 51°12.889 2°50.293 16.8285 0.029036 0.17203 0.148626
2009-12-11 08:14:13 51°12.887 2°50.287 16.8216 0.029242 0.17327 0.148626
2009-12-11 08:14:18 51°12.886 2°50.279 16.827 0.02883 0.17081 0.18345
2009-12-11 08:14:24 51°12.884 2°50.27 16.8311 0.032844 0.19505 0.18345
2009-12-11 08:14:28 51°12.882 2°50.264 16.8253 0.032947 0.195691 0.148626
2009-12-11 08:14:33 51°12.881 2°50.255 16.8288 0.031712 0.188247 0.148626
2009-12-11 08:14:38 51°12.879 2°50.248 16.8288 0.031712 0.188247 0.148626
2009-12-11 08:14:44 51°12.877 2°50.238 16.8364 0.031403 0.186343 0.148626
2009-12-11 08:14:48 51°12.876 2°50.233 16.8329 0.031609 0.187556 0.148626
2009-12-11 08:14:53 51°12.875 2°50.225 16.8386 0.031917 0.189412 0.148626
2009-12-11 08:14:58 51°12.873 2°50.217 16.8371 0.030374 0.180094 0.148626
2009-12-11 08:15:04 51°12.871 2°50.208 16.8391 0.030888 0.183204 0.148626
2009-12-11 08:15:09 51°12.87 2°50.201 16.8403 0.030888 0.183204 0.148626
2009-12-11 08:15:13 51°12.869 2°50.195 16.841 0.03058 0.181341 0.148626
2009-12-11 08:15:18 51°12.868 2°50.187 16.8426 0.032329 0.19188 0.148626
2009-12-11 08:15:24 51°12.866 2°50.178 16.848 0.032741 0.194424 0.148626
2009-12-11 08:15:28 51°12.865 2°50.172 16.8515 0.032123 0.190711 0.148626
2009-12-11 08:15:33 51°12.864 2°50.164 16.8477 0.032947 0.195695 0.148626
2009-12-11 08:15:38 51°12.862 2°50.156 16.8482 0.032947 0.195695 0.148626
2009-12-11 08:15:44 51°12.86 2°50.147 16.8529 0.030785 0.18263 0.148626
2009-12-11 08:15:49 51°12.859 2°50.139 16.8534 0.030683 0.181992 0.148626
2009-12-11 08:15:53 51°12.858 2°50.133 16.8557 0.030168 0.178886 0.148626
2009-12-11 08:15:58 51°12.857 2°50.125 16.8579 0.030065 0.178245 0.18345
2009-12-11 08:16:03 51°12.855 2°50.118 16.8566 0.029653 0.175758 0.148626
2009-12-11 08:16:08 51°12.854 2°50.11 16.8623 0.029653 0.175758 0.148626
2009-12-11 08:16:14 51°12.851 2°50.101 16.8596 0.030888 0.183194 0.148626
2009-12-11 08:16:18 51°12.851 2°50.094 16.8649 0.030785 0.182577 0.148626
2009-12-11 08:16:23 51°12.849 2°50.087 16.8664 0.028521 0.168953 0.148626
2009-12-11 08:16:29 51°12.847 2°50.078 16.8726 0.028007 0.16585 0.148626
2009-12-11 08:16:34 51°12.846 2°50.07 16.8822 0.027904 0.165226 0.148626
2009-12-11 08:16:38 51°12.844 2°50.065 16.8975 0.027904 0.165226 0.148626
2009-12-11 08:16:43 51°12.841 2°50.058 16.9046 0.029242 0.1733 0.18345
2009-12-11 08:16:48 51°12.84 2°50.051 16.9173 0.027492 0.162793 0.148626
2009-12-11 08:16:54 51°12.837 2°50.042 16.9224 0.027287 0.161557 0.148626
2009-12-11 08:16:58 51°12.834 2°50.037 16.9293 0.027492 0.16279 0.148626
2009-12-11 08:17:03 51°12.832 2°50.03 16.9207 0.029653 0.175782 0.18345
2009-12-11 08:17:09 51°12.83 2°50.021 16.9551 0.029653 0.175782 0.18345
2009-12-11 08:17:13 51°12.827 2°50.016 16.9288 0.033255 0.197563 0.148626
2009-12-11 08:17:18 51°12.825 2°50.009 16.9384 0.030888 0.183311 0.148626
2009-12-11 08:17:23 51°12.822 2°50.002 16.9427 0.029551 0.17522 0.148626
2009-12-11 08:17:29 51°12.819 2°49.994 16.9507 0.029036 0.17208 0.148626
2009-12-11 08:17:33 51°12.816 2°49.988 16.9663 0.028316 0.16774 0.18345
2009-12-11 08:17:38 51°12.814 2°49.982 16.9471 0.028316 0.16774 0.18345
2009-12-11 08:17:43 51°12.811 2°49.975 16.9439 0.029036 0.172053 0.148626
2009-12-11 08:17:49 51°12.808 2°49.966 16.9796 0.028624 0.169577 0.148626
2009-12-11 08:17:53 51°12.806 2°49.961 16.9509 0.028521 0.168956 0.18345
2009-12-11 08:17:58 51°12.804 2°49.954 16.9785 0.028007 0.165872 0.148626
2009-12-11 08:18:04 51°12.8 2°49.946 16.9713 0.028316 0.167731 0.148626
2009-12-11 08:18:09 51°12.797 2°49.94 16.9893 0.028316 0.167731 0.148626
2009-12-11 08:18:13 51°12.794 2°49.935 16.9766 0.027801 0.16465 0.18345
2009-12-11 08:18:18 51°12.792 2°49.928 16.981 0.02811 0.166515 0.18345
2009-12-11 08:18:23 51°12.789 2°49.921 17.0005 0.028933 0.171464 0.148626
2009-12-11 08:18:29 51°12.785 2°49.914 16.9894 0.028624 0.169603 0.148626
2009-12-11 08:18:33 51°12.783 2°49.908 16.9829 0.028316 0.16775 0.18345
2009-12-11 08:18:38 51°12.781 2°49.901 16.9816 0.028316 0.16775 0.18345
2009-12-11 08:18:43 51°12.779 2°49.894 16.9971 0.029962 0.177657 0.18345
2009-12-11 08:18:48 51°12.776 2°49.887 17.0126 0.029448 0.174558 0.18345
2009-12-11 08:18:54 51°12.773 2°49.879 16.9958 0.028316 0.167747 0.148626
2009-12-11 08:18:58 51°12.771 2°49.873 17.0021 0.029448 0.174551 0.18345
2009-12-11 08:19:03 51°12.769 2°49.866 17.0012 0.030374 0.180143 0.148626
2009-12-11 08:19:08 51°12.766 2°49.86 17.0144 0.030374 0.180143 0.148626
2009-12-11 08:19:14 51°12.763 2°49.852 17.0231 0.029345 0.173959 0.148626
2009-12-11 08:19:18 51°12.762 2°49.847 17.0264 0.02883 0.170856 0.148626
2009-12-11 08:19:23 51°12.759 2°49.84 17.0045 0.027801 0.164657 0.18345
2009-12-11 08:19:29 51°12.757 2°49.831 17.0432 0.028933 0.171451 0.148626
2009-12-11 08:19:33 51°12.755 2°49.826 17.012 0.029653 0.175809 0.148626
2009-12-11 08:19:38 51°12.753 2°49.818 17.0119 0.029653 0.175809 0.148626
2009-12-11 08:19:43 51°12.752 2°49.81 17.0406 0.033461 0.198871 0.18345
2009-12-11 08:19:49 51°12.748 2°49.803 17.0288 0.030888 0.183304 0.18345
2009-12-11 08:19:53 51°12.747 2°49.797 17.0547 0.029962 0.177729 0.18345
2009-12-11 08:19:58 51°12.744 2°49.79 17.0447 0.02883 0.170895 0.148626
2009-12-11 08:20:03 51°12.742 2°49.782 17.0443 0.029962 0.177702 0.148626
2009-12-11 08:20:09 51°12.74 2°49.774 17.0349 0.029962 0.177702 0.148626
2009-12-11 08:20:13 51°12.738 2°49.768 17.0595 0.029962 0.177715 0.18345
2009-12-11 08:20:18 51°12.736 2°49.761 17.0329 0.029551 0.175237 0.148626
2009-12-11 08:20:23 51°12.734 2°49.753 17.05 0.029859 0.177099 0.18345
2009-12-11 08:20:29 51°12.731 2°49.745 17.0357 0.029756 0.176483 0.18345
2009-12-11 08:20:33 51°12.73 2°49.739 17.0685 0.033358 0.19824 0.148626
2009-12-11 08:20:38 51°12.726 2°49.733 17.0567 0.033358 0.19824 0.148626
2009-12-11 08:20:43 51°12.725 2°49.725 17.0621 0.032226 0.191429 0.148626
2009-12-11 08:20:49 51°12.722 2°49.716 17.0694 0.030065 0.178349 0.148626
2009-12-11 08:20:53 51°12.72 2°49.711 17.0552 0.028213 0.167171 0.148626
2009-12-11 08:20:58 51°12.718 2°49.703 17.0672 0.029345 0.173966 0.18345
2009-12-11 08:21:03 51°12.716 2°49.696 17.0478 0.028316 0.167759 0.148626
2009-12-11 08:21:08 51°12.714 2°49.689 17.0686 0.028316 0.167759 0.148626
2009-12-11 08:21:13 51°12.711 2°49.682 17.0799 0.029859 0.177051 0.18345
2009-12-11 08:21:18 51°12.709 2°49.675 17.0738 0.030683 0.182034 0.18345
2009-12-11 08:21:23 51°12.707 2°49.667 17.0663 0.030168 0.178983 0.18345
2009-12-11 08:21:28 51°12.705 2°49.66 17.0784 0.031197 0.185188 0.148626
2009-12-11 08:21:33 51°12.702 2°49.653 17.0806 0.031712 0.18832 0.18345
2009-12-11 08:21:38 51°12.7 2°49.646 17.061 0.031712 0.18832 0.18345
2009-12-11 08:21:43 51°12.699 2°49.638 17.0811 0.030477 0.180832 0.148626
2009-12-11 08:21:48 51°12.696 2°49.631 17.0825 0.028727 0.170267 0.18345
2009-12-11 08:21:53 51°12.693 2°49.624 17.0819 0.030785 0.182655 0.18345
2009-12-11 08:21:58 51°12.692 2°49.617 17.0771 0.030271 0.179564 0.18345
2009-12-11 08:22:03 51°12.689 2°49.61 17.0878 0.029139 0.172741 0.148626
2009-12-11 08:22:08 51°12.687 2°49.603 17.0849 0.029139 0.172741 0.148626
2009-12-11 08:22:13 51°12.685 2°49.596 17.087 0.029242 0.173373 0.18345
2009-12-11 08:22:18 51°12.682 2°49.588 17.09 0.029551 0.175241 0.18345
2009-12-11 08:22:23 51°12.68 2°49.581 17.0931 0.029962 0.177705 0.148626
2009-12-11 08:22:29 51°12.677 2°49.573 17.0948 0.030785 0.182669 0.148626
2009-12-11 08:22:33 51°12.675 2°49.567 17.0931 0.029139 0.172748 0.18345
2009-12-11 08:22:38 51°12.673 2°49.56 17.0969 0.029139 0.172748 0.18345
2009-12-11 08:22:43 51°12.671 2°49.553 17.1026 0.029551 0.175231 0.148626
2009-12-11 08:22:49 51°12.669 2°49.544 17.1054 0.029139 0.172755 0.148626
2009-12-11 08:22:53 51°12.667 2°49.538 17.0906 0.028624 0.169642 0.148626
2009-12-11 08:22:58 51°12.665 2°49.531 17.1029 0.028007 0.165923 0.18345
2009-12-11 08:23:03 51°12.663 2°49.524 17.1007 0.027904 0.16529 0.18345
2009-12-11 08:23:09 51°12.66 2°49.515 17.1075 0.027904 0.16529 0.18345
2009-12-11 08:23:13 51°12.657 2°49.51 17.1052 0.02811 0.166508 0.148626
2009-12-11 08:23:18 51°12.655 2°49.503 17.1087 0.029756 0.176411 0.18345
2009-12-11 08:23:24 51°12.652 2°49.494 17.1101 0.029653 0.175813 0.18345
2009-12-11 08:23:28 51°12.65 2°49.489 17.1127 0.028316 0.167776 0.18345
2009-12-11 08:23:33 51°12.647 2°49.482 17.1089 0.029345 0.173966 0.148626
2009-12-11 08:23:38 51°12.644 2°49.475 17.1153 0.029345 0.173966 0.148626
2009-12-11 08:23:44 51°12.642 2°49.467 17.1151 0.028419 0.16841 0.18345
2009-12-11 08:23:48 51°12.639 2°49.462 17.1165 0.031197 0.185134 0.18345
2009-12-11 08:23:53 51°12.637 2°49.454 17.1216 0.031197 0.185188 0.18345
2009-12-11 08:23:58 51°12.633 2°49.449 17.1221 0.031917 0.189563 0.148626
2009-12-11 08:24:04 51°12.63 2°49.441 17.1267 0.029859 0.177133 0.18345
2009-12-11 08:24:09 51°12.626 2°49.435 17.1131 0.029859 0.177133 0.18345
2009-12-11 08:24:13 51°12.625 2°49.429 17.1236 0.032535 0.193292 0.18345
2009-12-11 08:24:18 51°12.621 2°49.424 17.1214 0.032432 0.19267 0.148626
2009-12-11 08:24:24 51°12.618 2°49.416 17.1291 0.031506 0.187066 0.148626
2009-12-11 08:24:28 51°12.615 2°49.411 17.1205 0.030271 0.179582 0.148626
2009-12-11 08:24:33 51°12.612 2°49.405 17.1316 0.028316 0.167795 0.148626
2009-12-11 08:24:38 51°12.61 2°49.397 17.1312 0.028316 0.167795 0.148626
2009-12-11 08:24:44 51°12.606 2°49.39 17.1173 0.028007 0.16591 0.18345
2009-12-11 08:24:49 51°12.604 2°49.383 17.1359 0.031712 0.188261 0.18345
2009-12-11 08:24:53 51°12.601 2°49.378 17.1201 0.032432 0.19267 0.18345
2009-12-11 08:24:58 51°12.599 2°49.371 17.1346 0.032741 0.19456 0.18345
2009-12-11 08:25:03 51°12.596 2°49.364 17.1317 0.03202 0.190215 0.148626
2009-12-11 08:25:08 51°12.594 2°49.358 17.1357 0.03202 0.190215 0.148626
2009-12-11 08:25:14 51°12.591 2°49.35 17.1431 0.029859 0.177147 0.18345
2009-12-11 08:25:18 51°12.588 2°49.344 17.1392 0.029756 0.176483 0.148626
2009-12-11 08:25:23 51°12.585 2°49.337 17.138 0.02883 0.170922 0.148626
2009-12-11 08:25:28 51°12.583 2°49.331 17.1441 0.029756 0.176466 0.148626
2009-12-11 08:25:34 51°12.579 2°49.323 17.1419 0.032329 0.192022 0.18345
2009-12-11 08:25:38 51°12.577 2°49.317 17.147 0.032329 0.192022 0.18345
2009-12-11 08:25:43 51°12.573 2°49.311 17.1465 0.031506 0.187066 0.218274
2009-12-11 08:25:48 51°12.571 2°49.305 17.1499 0.029962 0.17775 0.18345
2009-12-11 08:25:54 51°12.568 2°49.296 17.1477 0.03058 0.181453 0.18345
2009-12-11 08:25:58 51°12.565 2°49.292 17.1488 0.031094 0.18456 0.18345
2009-12-11 08:26:03 51°12.563 2°49.284 17.1531 0.029756 0.1765 0.18345
2009-12-11 08:26:09 51°12.559 2°49.277 17.1556 0.029756 0.1765 0.18345
2009-12-11 08:26:13 51°12.557 2°49.272 17.1583 0.028933 0.171534 0.18345
2009-12-11 08:26:18 51°12.554 2°49.265 17.1565 0.030785 0.182669 0.218274
2009-12-11 08:26:23 51°12.551 2°49.258 17.1568 0.029551 0.175237 0.18345
2009-12-11 08:26:29 51°12.548 2°49.25 17.1603 0.03058 0.181439 0.18345
2009-12-11 08:26:33 51°12.545 2°49.245 17.1571 0.029859 0.177099 0.18345
2009-12-11 08:26:38 51°12.543 2°49.238 17.1632 0.029859 0.177099 0.18345
2009-12-11 08:26:43 51°12.539 2°49.232 17.1557 0.032226 0.191392 0.18345
2009-12-11 08:26:49 51°12.536 2°49.224 17.1635 0.031094 0.184563 0.18345
2009-12-11 08:26:53 51°12.534 2°49.218 17.1648 0.031712 0.188294 0.18345
2009-12-11 08:26:58 51°12.531 2°49.212 17.1666 0.031917 0.189508 0.218274
2009-12-11 08:27:04 51°12.528 2°49.204 17.168 0.029242 0.173353 0.18345
2009-12-11 08:27:09 51°12.525 2°49.198 17.1704 0.029242 0.173353 0.18345
2009-12-11 08:27:13 51°12.523 2°49.193 17.1671 0.028419 0.168403 0.18345
2009-12-11 08:27:18 51°12.52 2°49.186 17.1697 0.028521 0.169024 0.18345
2009-12-11 08:27:23 51°12.517 2°49.179 17.1727 0.028933 0.171501 0.18345
2009-12-11 08:27:29 51°12.514 2°49.172 17.1736 0.027595 0.163476 0.218274
2009-12-11 08:27:33 51°12.512 2°49.166 17.1728 0.029242 0.173377 0.18345
2009-12-11 08:27:38 51°12.509 2°49.159 17.1761 0.029242 0.173377 0.18345
2009-12-11 08:27:43 51°12.506 2°49.153 17.1765 0.028213 0.167209 0.18345
2009-12-11 08:27:48 51°12.504 2°49.146 17.179 0.028419 0.168448 0.18345
2009-12-11 08:27:54 51°12.501 2°49.137 17.1802 0.027904 0.165359 0.18345
2009-12-11 08:27:58 51°12.498 2°49.132 17.1787 0.027595 0.163498 0.18345
2009-12-11 08:28:03 51°12.496 2°49.125 17.1831 0.027904 0.165362 0.218274
2009-12-11 08:28:08 51°12.492 2°49.119 17.1828 0.027904 0.165362 0.218274
2009-12-11 08:28:13 51°12.49 2°49.111 17.1847 0.030168 0.179014 0.18345
2009-12-11 08:28:18 51°12.487 2°49.105 17.1866 0.028521 0.169083 0.218274
2009-12-11 08:28:23 51°12.484 2°49.099 17.1878 0.029036 0.172169 0.18345
2009-12-11 08:28:29 51°12.481 2°49.09 17.1884 0.02883 0.170935 0.18345
2009-12-11 08:28:33 51°12.478 2°49.085 17.1902 0.029859 0.17715 0.18345
2009-12-11 08:28:38 51°12.476 2°49.078 17.1905 0.029859 0.17715 0.18345
2009-12-11 08:28:43 51°12.471 2°49.072 17.1877 0.033667 0.200184 0.18345
2009-12-11 08:28:49 51°12.469 2°49.063 17.1923 0.033667 0.200235 0.18345
2009-12-11 08:28:53 51°12.466 2°49.058 17.1906 0.030065 0.178438 0.18345
2009-12-11 08:28:58 51°12.464 2°49.051 17.1947 0.030271 0.17963 0.18345
2009-12-11 08:29:03 51°12.461 2°49.044 17.1938 0.029551 0.175281 0.18345
2009-12-11 08:29:09 51°12.458 2°49.036 17.1972 0.029551 0.175281 0.18345
2009-12-11 08:29:13 51°12.455 2°49.032 17.196 0.030271 0.179613 0.18345
2009-12-11 08:29:18 51°12.452 2°49.024 17.2 0.031094 0.18461 0.18345
2009-12-11 08:29:23 51°12.45 2°49.017 17.2009 0.0313 0.185888 0.18345
2009-12-11 08:29:29 51°12.446 2°49.01 17.2017 0.029345 0.174083 0.18345
2009-12-11 08:29:33 51°12.444 2°49.005 17.2022 0.029756 0.176551 0.18345
2009-12-11 08:29:38 51°12.441 2°48.998 17.2049 0.029756 0.176551 0.18345
2009-12-11 08:29:43 51°12.438 2°48.992 17.2062 0.029962 0.177801 0.18345
2009-12-11 08:29:49 51°12.434 2°48.983 17.2079 0.029653 0.175938 0.18345
2009-12-11 08:29:53 51°12.432 2°48.978 17.2097 0.027801 0.164786 0.18345
2009-12-11 08:29:58 51°12.429 2°48.971 17.2099 0.029036 0.172199 0.18345
2009-12-11 08:30:03 51°12.426 2°48.964 17.2114 0.028727 0.170336 0.18345
2009-12-11 08:30:08 51°12.423 2°48.958 17.2113 0.028727 0.170336 0.18345
2009-12-11 08:30:13 51°12.42 2°48.952 17.2125 0.028727 0.170346 0.18345
2009-12-11 08:30:18 51°12.417 2°48.945 17.2119 0.028727 0.170369 0.18345
2009-12-11 08:30:23 51°12.414 2°48.939 17.2151 0.029962 0.177811 0.18345
2009-12-11 08:30:28 51°12.412 2°48.932 17.2148 0.0313 0.185924 0.18345
2009-12-11 08:30:33 51°12.408 2°48.926 17.2172 0.031917 0.189696 0.18345
2009-12-11 08:30:38 51°12.406 2°48.919 17.2185 0.031917 0.189696 0.18345
2009-12-11 08:30:43 51°12.403 2°48.912 17.2182 0.031506 0.187233 0.18345
2009-12-11 08:30:48 51°12.4 2°48.906 17.2194 0.029653 0.175969 0.18345
2009-12-11 08:30:53 51°12.397 2°48.899 17.2216 0.031506 0.187135 0.18345
2009-12-11 08:30:58 51°12.395 2°48.892 17.2223 0.030683 0.182274 0.18345
2009-12-11 08:31:03 51°12.391 2°48.886 17.2235 0.029242 0.173594 0.18345
2009-12-11 08:31:08 51°12.389 2°48.879 17.226 0.029242 0.173594 0.18345
2009-12-11 08:31:13 51°12.385 2°48.873 17.228 0.029756 0.176664 0.18345
2009-12-11 08:31:18 51°12.383 2°48.866 17.2292 0.029756 0.176674 0.18345
2009-12-11 08:31:23 51°12.38 2°48.86 17.2295 0.034181 0.203475 0.18345
2009-12-11 08:31:29 51°12.377 2°48.852 17.2312 0.03058 0.18166 0.18345
2009-12-11 08:31:33 51°12.375 2°48.846 17.2333 0.028419 0.168604 0.18345
2009-12-11 08:31:38 51°12.372 2°48.84 17.2346 0.028419 0.168604 0.18345
2009-12-11 08:31:43 51°12.37 2°48.833 17.2348 0.029139 0.172904 0.18345
2009-12-11 08:31:49 51°12.367 2°48.825 17.2369 0.029653 0.175993 0.18345
2009-12-11 08:31:53 51°12.364 2°48.82 17.2385 0.02883 0.17103 0.18345
2009-12-11 08:31:58 51°12.362 2°48.813 17.2392 0.029756 0.176609 0.18345
2009-12-11 08:32:04 51°12.358 2°48.806 17.2416 0.028007 0.166069 0.18345
2009-12-11 08:32:09 51°12.356 2°48.799 17.2387 0.028007 0.166069 0.18345
2009-12-11 08:32:13 51°12.354 2°48.793 17.2434 0.032123 0.190889 0.18345
2009-12-11 08:32:18 51°12.352 2°48.786 17.2447 0.030374 0.180345 0.218274
2009-12-11 08:32:24 51°12.349 2°48.777 17.2448 0.028727 0.170388 0.18345
2009-12-11 08:32:28 51°12.347 2°48.772 17.2461 0.029551 0.175329 0.18345
2009-12-11 08:32:33 51°12.345 2°48.765 17.2479 0.029139 0.172884 0.18345
2009-12-11 08:32:38 51°12.342 2°48.758 17.2495 0.029139 0.172884 0.18345
2009-12-11 08:32:44 51°12.339 2°48.75 17.25 0.030168 0.179097 0.18345
2009-12-11 08:32:48 51°12.338 2°48.743 17.2509 0.029139 0.172908 0.18345
2009-12-11 08:32:53 51°12.336 2°48.736 17.2534 0.029859 0.177287 0.18345
2009-12-11 08:32:58 51°12.334 2°48.729 17.255 0.03058 0.181678 0.18345
2009-12-11 08:33:04 51°12.332 2°48.72 17.2544 0.02883 0.171129 0.18345
2009-12-11 08:33:08 51°12.33 2°48.714 17.257 0.02883 0.171129 0.18345
2009-12-11 08:33:13 51°12.328 2°48.707 17.2575 0.030168 0.179194 0.18345
2009-12-11 08:33:18 51°12.326 2°48.7 17.2616 0.029448 0.174847 0.18345
2009-12-11 08:33:24 51°12.324 2°48.691 17.2619 0.029139 0.172984 0.18345
2009-12-11 08:33:28 51°12.322 2°48.685 17.264 0.028213 0.167396 0.18345
2009-12-11 08:33:33 51°12.32 2°48.677 17.265 0.028727 0.170477 0.18345
2009-12-11 08:33:38 51°12.318 2°48.67 17.2664 0.028727 0.170477 0.18345
2009-12-11 08:33:44 51°12.315 2°48.661 17.267 0.02883 0.171096 0.18345
2009-12-11 08:33:49 51°12.314 2°48.654 17.2662 0.028419 0.16861 0.18345
2009-12-11 08:33:53 51°12.312 2°48.648 17.2686 0.028727 0.170451 0.18345
2009-12-11 08:33:58 51°12.31 2°48.64 17.2708 0.028727 0.170431 0.18345
2009-12-11 08:34:02 51°12.308 2°48.635 17.2737 0.028727 0.170434 0.18345
2009-12-11 08:34:09 51°12.305 2°48.624 17.2751 0.028727 0.170434 0.18345
2009-12-11 08:34:13 51°12.304 2°48.618 17.2749 0.028521 0.169197 0.18345
2009-12-11 08:34:18 51°12.301 2°48.611 17.2744 0.031094 0.184717 0.18345
2009-12-11 08:34:24 51°12.298 2°48.603 17.2776 0.029345 0.17417 0.18345
2009-12-11 08:34:28 51°12.297 2°48.597 17.2763 0.029242 0.173544 0.18345
2009-12-11 08:34:34 51°12.294 2°48.588 17.2813 0.029345 0.174164 0.18345
2009-12-11 08:34:38 51°12.292 2°48.582 17.2783 0.029345 0.174164 0.18345
2009-12-11 08:34:43 51°12.289 2°48.575 17.2868 0.030271 0.179759 0.18345
2009-12-11 08:34:48 51°12.288 2°48.567 17.2821 0.029859 0.177287 0.18345
2009-12-11 08:34:53 51°12.285 2°48.56 17.2874 0.028007 0.166133 0.18345
2009-12-11 08:34:58 51°12.284 2°48.552 17.2798 0.0313 0.185982 0.18345
2009-12-11 08:35:03 51°12.281 2°48.546 17.2856 0.030374 0.180408 0.18345
2009-12-11 08:35:08 51°12.279 2°48.538 17.2846 0.030374 0.180408 0.18345
2009-12-11 08:35:13 51°12.277 2°48.531 17.291 0.030065 0.178518 0.18345
2009-12-11 08:35:18 51°12.275 2°48.523 17.2912 0.031094 0.184724 0.18345
2009-12-11 08:35:24 51°12.273 2°48.514 17.2904 0.030991 0.184153 0.18345
2009-12-11 08:35:28 51°12.271 2°48.508 17.2925 0.029448 0.174787 0.18345
2009-12-11 08:35:33 51°12.269 2°48.501 17.2956 0.028727 0.170421 0.18345
2009-12-11 08:35:38 51°12.267 2°48.494 17.2955 0.028727 0.170421 0.18345
2009-12-11 08:35:44 51°12.264 2°48.485 17.2968 0.027904 0.165467 0.18345
2009-12-11 08:35:48 51°12.263 2°48.479 17.2998 0.028316 0.167943 0.18345
2009-12-11 08:35:53 51°12.261 2°48.471 17.2951 0.028727 0.170421 0.18345
2009-12-11 08:35:58 51°12.258 2°48.464 17.2973 0.0313 0.185982 0.18345
2009-12-11 08:36:04 51°12.256 2°48.455 17.3036 0.029653 0.176057 0.18345
2009-12-11 08:36:08 51°12.255 2°48.449 17.3024 0.029653 0.176057 0.18345
2009-12-11 08:36:13 51°12.253 2°48.442 17.3019 0.02883 0.171083 0.18345
2009-12-11 08:36:18 51°12.251 2°48.435 17.3011 0.029551 0.17542 0.18345
2009-12-11 08:36:23 51°12.249 2°48.427 17.3087 0.028727 0.170464 0.18345
2009-12-11 08:36:28 51°12.247 2°48.42 17.3092 0.028007 0.166104 0.18345
2009-12-11 08:36:34 51°12.245 2°48.41 17.308 0.028419 0.168578 0.18345
2009-12-11 08:36:38 51°12.244 2°48.405 17.3111 0.028419 0.168578 0.18345
2009-12-11 08:36:43 51°12.243 2°48.396 17.3086 0.027287 0.161758 0.18345
2009-12-11 08:36:48 51°12.242 2°48.389 17.3139 0.027184 0.161132 0.18345
2009-12-11 08:36:54 51°12.241 2°48.379 17.3167 0.027184 0.161141 0.18345
2009-12-11 08:36:58 51°12.241 2°48.373 17.3174 0.028213 0.167334 0.18345
2009-12-11 08:37:03 51°12.242 2°48.365 17.3189 0.030065 0.178501 0.18345
2009-12-11 08:37:08 51°12.242 2°48.358 17.3226 0.030065 0.178501 0.18345
2009-12-11 08:37:13 51°12.242 2°48.35 17.3259 0.030477 0.181011 0.18345
2009-12-11 08:37:18 51°12.243 2°48.342 17.3228 0.031506 0.187266 0.18345
2009-12-11 08:37:23 51°12.243 2°48.335 17.3246 0.029962 0.177942 0.18345
2009-12-11 08:37:28 51°12.244 2°48.327 17.3321 0.032226 0.191601 0.18345
2009-12-11 08:37:33 51°12.245 2°48.32 17.3318 0.030168 0.179208 0.18345
2009-12-11 08:37:38 51°12.246 2°48.312 17.334 0.030168 0.179208 0.18345
2009-12-11 08:37:44 51°12.247 2°48.303 17.3347 0.029448 0.174841 0.18345
2009-12-11 08:37:48 51°12.249 2°48.297 17.336 0.029139 0.172951 0.18345
2009-12-11 08:37:53 51°12.25 2°48.289 17.3359 0.028521 0.169219 0.18345
2009-12-11 08:37:58 51°12.252 2°48.282 17.3359 0.029036 0.172302 0.18345
2009-12-11 08:38:03 51°12.253 2°48.274 17.3402 0.028521 0.16921 0.18345
2009-12-11 08:38:09 51°12.255 2°48.266 17.3385 0.028521 0.16921 0.18345
2009-12-11 08:38:13 51°12.257 2°48.26 17.3374 0.029653 0.176027 0.18345
2009-12-11 08:38:18 51°12.258 2°48.253 17.3457 0.031815 0.189081 0.18345
2009-12-11 08:38:23 51°12.26 2°48.247 17.3456 0.031609 0.187866 0.18345
2009-12-11 08:38:29 51°12.262 2°48.239 17.3477 0.02883 0.171086 0.18345
2009-12-11 08:38:33 51°12.264 2°48.234 17.3471 0.029036 0.172292 0.18345
2009-12-11 08:38:38 51°12.266 2°48.228 17.3462 0.029036 0.172292 0.18345
2009-12-11 08:38:43 51°12.268 2°48.221 17.3492 0.029551 0.175407 0.18345
2009-12-11 08:38:49 51°12.271 2°48.214 17.3473 0.028521 0.169223 0.18345
2009-12-11 08:38:53 51°12.272 2°48.209 17.3545 0.028624 0.169851 0.18345
2009-12-11 08:38:58 51°12.275 2°48.203 17.3566 0.028521 0.169236 0.18345
2009-12-11 08:39:03 51°12.277 2°48.198 17.354 0.028316 0.167998 0.18345
2009-12-11 08:39:08 51°12.279 2°48.192 17.3571 0.028316 0.167998 0.18345
2009-12-11 08:39:14 51°12.282 2°48.185 17.3582 0.028521 0.169245 0.18345
2009-12-11 08:39:18 51°12.284 2°48.181 17.3639 0.027698 0.164275 0.18345
2009-12-11 08:39:23 51°12.287 2°48.176 17.3653 0.029036 0.172302 0.18345
2009-12-11 08:39:28 51°12.289 2°48.171 17.3632 0.029242 0.173541 0.18345
2009-12-11 08:39:34 51°12.293 2°48.165 17.3658 0.028419 0.168614 0.18345
2009-12-11 08:39:38 51°12.294 2°48.161 17.3662 0.028419 0.168614 0.18345
2009-12-11 08:39:43 51°12.297 2°48.156 17.368 0.027492 0.163052 0.18345
2009-12-11 08:39:49 51°12.3 2°48.15 17.3673 0.028213 0.167373 0.18345
2009-12-11 08:39:53 51°12.303 2°48.146 17.3728 0.029551 0.17542 0.18345
2009-12-11 08:39:58 51°12.305 2°48.142 17.3691 0.030168 0.179145 0.18345
2009-12-11 08:40:03 51°12.308 2°48.138 17.3666 0.029139 0.172924 0.18345
2009-12-11 08:40:09 51°12.312 2°48.132 17.3662 0.029139 0.172924 0.18345
2009-12-11 08:40:13 51°12.313 2°48.128 17.369 0.029242 0.17351 0.18345
2009-12-11 08:40:18 51°12.316 2°48.124 17.3624 0.029859 0.177274 0.18345
2009-12-11 08:40:23 51°12.318 2°48.12 17.3703 0.029653 0.17603 0.18345
2009-12-11 08:40:29 51°12.321 2°48.117 17.3692 0.02883 0.171063 0.218274
2009-12-11 08:40:33 51°12.323 2°48.114 17.37 0.028727 0.170438 0.18345
2009-12-11 08:40:38 51°12.324 2°48.112 17.3786 0.028727 0.170438 0.18345
2009-12-11 08:40:43 51°12.327 2°48.11 17.3794 0.029653 0.17603 0.18345
2009-12-11 08:40:49 51°12.329 2°48.108 17.38 0.028624 0.169822 0.18345
2009-12-11 08:40:53 51°12.33 2°48.106 17.3848 0.028213 0.167363 0.18345
2009-12-11 08:40:58 51°12.332 2°48.105 17.385 0.028213 0.167373 0.18345
2009-12-11 08:41:03 51°12.333 2°48.104 17.3847 0.028933 0.171722 0.18345
2009-12-11 08:41:08 51°12.335 2°48.102 17.3914 0.028933 0.171722 0.18345
2009-12-11 08:41:13 51°12.336 2°48.101 17.3923 0.029242 0.173591 0.18345
2009-12-11 08:41:18 51°12.337 2°48.1 17.3906 0.028419 0.16863 0.18345
2009-12-11 08:41:23 51°12.339 2°48.099 17.4002 0.028624 0.169868 0.18345
2009-12-11 08:41:28 51°12.339 2°48.099 17.4017 0.030991 0.184153 0.18345
2009-12-11 08:41:33 51°12.34 2°48.098 17.4016 0.029756 0.176739 0.18345
2009-12-11 08:41:38 51°12.341 2°48.098 17.3945 0.029756 0.176739 0.18345
2009-12-11 08:41:43 51°12.342 2°48.098 17.4002 0.028007 0.166146 0.18345
2009-12-11 08:41:48 51°12.343 2°48.098 17.4023 0.029139 0.172954 0.18345
2009-12-11 08:41:53 51°12.344 2°48.099 17.4021 0.029242 0.173581 0.18345
2009-12-11 08:41:58 51°12.344 2°48.099 17.3981 0.028933 0.171719 0.18345
2009-12-11 08:42:03 51°12.345 2°48.099 17.4087 0.030683 0.182274 0.18345
2009-12-11 08:42:08 51°12.345 2°48.099 17.413 0.030683 0.182274 0.18345
2009-12-11 08:42:13 51°12.346 2°48.1 17.4108 0.029756 0.176694 0.18345
2009-12-11 08:42:18 51°12.346 2°48.101 17.4101 0.02883 0.171103 0.18345
2009-12-11 08:42:23 51°12.346 2°48.101 17.4164 0.028213 0.167367 0.18345
2009-12-11 08:42:28 51°12.347 2°48.102 17.4092 0.028419 0.168597 0.18345
2009-12-11 08:42:33 51°12.347 2°48.102 17.4189 0.027287 0.161777 0.18345
2009-12-11 08:42:38 51°12.347 2°48.103 17.4193 0.027287 0.161777 0.18345
2009-12-11 08:42:43 51°12.348 2°48.105 17.419 0.032123 0.190978 0.18345
2009-12-11 08:42:49 51°12.348 2°48.105 17.422 0.030065 0.178556 0.18345
2009-12-11 08:42:53 51°12.348 2°48.106 17.4207 0.031815 0.189158 0.18345
2009-12-11 08:42:58 51°12.348 2°48.106 17.4178 0.030065 0.178577 0.18345
2009-12-11 08:43:03 51°12.349 2°48.106 17.422 0.030271 0.179787 0.18345
2009-12-11 08:43:09 51°12.349 2°48.105 17.4236 0.030271 0.179787 0.18345
2009-12-11 08:43:13 51°12.35 2°48.104 17.4244 0.029036 0.172328 0.18345
2009-12-11 08:43:18 51°12.35 2°48.101 17.4281 0.030374 0.180411 0.18345
2009-12-11 08:43:24 51°12.351 2°48.098 17.4284 0.030888 0.183556 0.18345
2009-12-11 08:43:28 51°12.351 2°48.096 17.4297 0.029345 0.174234 0.18345
2009-12-11 08:43:33 51°12.352 2°48.093 17.4304 0.030888 0.183549 0.18345
2009-12-11 08:43:38 51°12.351 2°48.089 17.4291 0.030888 0.183549 0.18345
2009-12-11 08:43:44 51°12.351 2°48.083 17.4234 0.029448 0.174858 0.18345
2009-12-11 08:43:48 51°12.35 2°48.079 17.4274 0.029551 0.175464 0.18345
2009-12-11 08:43:53 51°12.349 2°48.073 17.4252 0.028933 0.171745 0.18345
2009-12-11 08:43:58 51°12.347 2°48.066 17.4254 0.03202 0.190378 0.18345
2009-12-11 08:44:04 51°12.345 2°48.056 17.4247 0.029653 0.176101 0.18345
2009-12-11 08:44:09 51°12.342 2°48.046 17.4243 0.029653 0.176101 0.18345
2009-12-11 08:44:13 51°12.341 2°48.037 17.4258 0.03202 0.1904 0.18345
2009-12-11 08:44:18 51°12.338 2°48.026 17.4247 0.029139 0.172994 0.18345
2009-12-11 08:44:24 51°12.335 2°48.011 17.4279 0.028933 0.171752 0.18345
2009-12-11 08:44:28 51°12.333 2°48.001 17.431 0.029551 0.175461 0.18345
2009-12-11 08:44:33 51°12.33 2°47.987 17.4314 0.030168 0.179211 0.18345
2009-12-11 08:44:38 51°12.327 2°47.973 17.432 0.030168 0.179211 0.18345
2009-12-11 08:44:44 51°12.324 2°47.955 17.4352 0.030477 0.181123 0.18345